Dirección General De Aeronáutica Civil

Dirección Meteorológica de Chile - Servicios Climáticos

Informe General de Control de Calidad de la Estación

Listado de niveles de control de calidad para algunos parámetros
Estación Nogales Liceo agrícola (FDF) (320050)
Fecha de Revisión de los datos :

Elementos

Registros Niveles de Control Total
Nivel 0 Nivel 1 Nivel 2 Nivel 3 Errores Porcentaje
01 Temperatura del Aire Seco 136.263 0 . 106 0.08 % 0 . 0 . 106 0.08 %
02 Temperatura de Rocío 126.339 0 . 0 . 0 . 0 . 0 0.00 %
03 Humedad Relativa del Aire 127.135 0 . 0 . 0 . 0 . 0 0.00 %
04 Temperatura Máxima PM 7.819 0 . 0 . 207 2.65 % 0 . 207 2.65 %
05 Temperatura Mínima AM 7.815 0 . 0 . 208 2.66 % 0 . 208 2.66 %
06 Viento a 10 m. de Altura 0 0 . 0 . 0 . 0 . 0 .
07 Agua Caida, Acumulada 6 Horas 22.226 0 . 0 . 0 . 0 . 0 0.00 %
08 Presión Atm. a Nivel de Estación (QFE) 124.004 0 . 0 . 0 . 0 . 0 0.00 %
09 Presión Atm. a Nivel Medio del Mar (QFF) 26.625 0 . 0 . 0 . 0 . 0 0.00 %
10 Presión Atm. Estándar OACI (QNH) 26.625 0 . 0 . 0 . 0 . 0 0.00 %

Totales

604.851 . 0.0000 % . 0.0175 % . 0.0686 % . 0.0000 % 521 0.0861 %

Detalle de Errores Encontrados

Nivel Fecha del Dato Descripción Información Error Fecha Ingreso
1 2014-07-15 07:00:00 Ts debe ser mayor o igual a Td Ts=8.9 - Td=9.0 2023-10-23 14:04:00
1 2014-07-16 12:00:00 Ts debe ser mayor o igual a Td Ts=8.2 - Td=8.3 2023-10-23 14:04:00
1 2014-09-02 11:00:00 Ts debe ser mayor o igual a Td Ts=10.7 - Td=10.8 2023-10-23 14:05:00
1 2014-09-03 10:00:00 Ts debe ser mayor o igual a Td Ts=10.5 - Td=10.6 2023-10-23 14:05:00
1 2015-05-17 11:00:00 Ts debe ser mayor o igual a Td Ts=5.7 - Td=5.8 2023-10-23 14:11:00
1 2015-05-18 12:00:00 Ts debe ser mayor o igual a Td Ts=7.4 - Td=7.5 2023-10-23 14:11:00
1 2015-07-07 13:00:00 Ts debe ser mayor o igual a Td Ts=7.8 - Td=7.9 2023-10-23 14:12:00
1 2015-08-07 05:00:00 Ts debe ser mayor o igual a Td Ts=9.2 - Td=9.3 2023-10-23 14:13:00
1 2015-08-07 09:00:00 Ts debe ser mayor o igual a Td Ts=9.2 - Td=9.3 2023-10-23 14:13:00
1 2015-08-07 11:00:00 Ts debe ser mayor o igual a Td Ts=9.4 - Td=9.5 2023-10-23 14:13:00
1 2015-08-07 13:00:00 Ts debe ser mayor o igual a Td Ts=10.5 - Td=10.6 2023-10-23 14:13:00
1 2016-04-17 14:00:00 Ts debe ser mayor o igual a Td Ts=14.7 - Td=14.8 2023-10-23 14:19:00
1 2016-04-17 21:00:00 Ts debe ser mayor o igual a Td Ts=15.1 - Td=15.2 2023-10-23 14:19:00
1 2016-04-18 07:00:00 Ts debe ser mayor o igual a Td Ts=12.9 - Td=13.0 2023-10-23 14:19:00
1 2016-04-18 09:00:00 Ts debe ser mayor o igual a Td Ts=12.9 - Td=13.0 2023-10-23 14:19:00
1 2016-04-18 10:00:00 Ts debe ser mayor o igual a Td Ts=12.9 - Td=13.0 2023-10-23 14:19:00
1 2016-04-18 12:00:00 Ts debe ser mayor o igual a Td Ts=13.2 - Td=13.3 2023-10-23 14:19:00
1 2016-04-18 13:00:00 Ts debe ser mayor o igual a Td Ts=13.9 - Td=14.0 2023-10-23 14:19:00
1 2016-04-18 14:00:00 Ts debe ser mayor o igual a Td Ts=14.5 - Td=14.6 2023-10-23 14:19:00
1 2016-05-12 12:00:00 Ts debe ser mayor o igual a Td Ts=5.7 - Td=5.8 2023-10-23 14:19:00
1 2016-05-28 14:00:00 Ts debe ser mayor o igual a Td Ts=10.6 - Td=10.7 2023-10-23 14:20:00
1 2016-05-30 03:00:00 Ts debe ser mayor o igual a Td Ts=10.8 - Td=10.9 2023-10-23 14:20:00
1 2016-05-30 06:00:00 Ts debe ser mayor o igual a Td Ts=8.7 - Td=8.8 2023-10-23 14:20:00
1 2016-05-30 09:00:00 Ts debe ser mayor o igual a Td Ts=7.7 - Td=7.8 2023-10-23 14:20:00
1 2016-05-30 10:00:00 Ts debe ser mayor o igual a Td Ts=7.3 - Td=7.4 2023-10-23 14:20:00
1 2016-05-30 15:00:00 Ts debe ser mayor o igual a Td Ts=13.1 - Td=13.2 2023-10-23 14:20:00
1 2016-06-01 10:00:00 Ts debe ser mayor o igual a Td Ts=5.7 - Td=5.8 2023-10-23 14:20:00
1 2016-06-03 02:00:00 Ts debe ser mayor o igual a Td Ts=10.8 - Td=10.9 2023-10-23 14:20:00
1 2016-06-03 08:00:00 Ts debe ser mayor o igual a Td Ts=10.4 - Td=10.5 2023-10-23 14:20:00
1 2016-06-03 14:00:00 Ts debe ser mayor o igual a Td Ts=10.4 - Td=10.5 2023-10-23 14:20:00
1 2016-06-03 15:00:00 Ts debe ser mayor o igual a Td Ts=10.5 - Td=10.6 2023-10-23 14:20:00
1 2016-06-03 19:00:00 Ts debe ser mayor o igual a Td Ts=10.8 - Td=10.9 2023-10-23 14:20:00
1 2016-06-04 12:00:00 Ts debe ser mayor o igual a Td Ts=8.1 - Td=8.2 2023-10-23 14:20:00
1 2016-06-19 15:00:00 Ts debe ser mayor o igual a Td Ts=9.1 - Td=9.2 2023-10-23 14:20:00
1 2016-07-03 12:00:00 Ts debe ser mayor o igual a Td Ts=5.7 - Td=5.8 2023-10-23 14:20:00
1 2016-07-12 09:00:00 Ts debe ser mayor o igual a Td Ts=7.1 - Td=7.2 2023-10-23 14:21:00
1 2016-07-12 11:00:00 Ts debe ser mayor o igual a Td Ts=6.9 - Td=7.0 2023-10-23 14:21:00
1 2016-07-16 13:00:00 Ts debe ser mayor o igual a Td Ts=5.6 - Td=5.7 2023-10-23 14:21:00
1 2016-07-25 12:00:00 Ts debe ser mayor o igual a Td Ts=10.4 - Td=10.5 2023-10-23 14:21:00
1 2016-07-30 11:00:00 Ts debe ser mayor o igual a Td Ts=8.7 - Td=8.8 2023-10-23 14:21:00
1 2016-07-30 12:00:00 Ts debe ser mayor o igual a Td Ts=8.4 - Td=8.5 2023-10-23 14:21:00
1 2016-08-03 12:00:00 Ts debe ser mayor o igual a Td Ts=7.3 - Td=7.4 2023-10-23 14:21:00
1 2016-09-21 11:00:00 Ts debe ser mayor o igual a Td Ts=10.4 - Td=10.5 2023-10-23 14:22:00
1 2016-09-21 13:00:00 Ts debe ser mayor o igual a Td Ts=11.5 - Td=11.6 2023-10-23 14:22:00
1 2017-05-08 12:00:00 Ts debe ser mayor o igual a Td Ts=13.8 - Td=13.9 2023-10-23 14:28:00
1 2017-05-10 06:00:00 Ts debe ser mayor o igual a Td Ts=12.6 - Td=12.7 2023-10-23 14:28:00
1 2017-05-10 07:00:00 Ts debe ser mayor o igual a Td Ts=12.6 - Td=12.7 2023-10-23 14:28:00
1 2017-05-10 12:00:00 Ts debe ser mayor o igual a Td Ts=12.9 - Td=13.0 2023-10-23 14:28:00
1 2017-05-25 19:00:00 Ts debe ser mayor o igual a Td Ts=0.0 - Td=10.9 2023-10-23 14:28:00
1 2017-06-17 09:00:00 Ts debe ser mayor o igual a Td Ts=9.4 - Td=9.5 2023-10-23 14:29:00
1 2017-06-17 13:00:00 Ts debe ser mayor o igual a Td Ts=9.4 - Td=9.5 2023-10-23 14:29:00
1 2017-06-23 07:00:00 Ts debe ser mayor o igual a Td Ts=10.8 - Td=10.9 2023-10-23 14:29:00
1 2017-06-23 13:00:00 Ts debe ser mayor o igual a Td Ts=11.5 - Td=11.6 2023-10-23 14:29:00
1 2017-06-24 06:00:00 Ts debe ser mayor o igual a Td Ts=11.6 - Td=11.7 2023-10-23 14:29:00
1 2017-06-24 14:00:00 Ts debe ser mayor o igual a Td Ts=11.5 - Td=11.6 2023-10-23 14:29:00
1 2017-06-24 16:00:00 Ts debe ser mayor o igual a Td Ts=13.3 - Td=13.4 2023-10-23 14:29:00
1 2017-06-26 03:00:00 Ts debe ser mayor o igual a Td Ts=12.5 - Td=12.6 2023-10-23 14:29:00
1 2017-06-27 00:00:00 Ts debe ser mayor o igual a Td Ts=10.6 - Td=10.7 2023-10-23 14:29:00
1 2017-06-27 10:00:00 Ts debe ser mayor o igual a Td Ts=9.1 - Td=9.2 2023-10-23 14:29:00
1 2017-06-27 12:00:00 Ts debe ser mayor o igual a Td Ts=8.7 - Td=8.8 2023-10-23 14:29:00
1 2017-06-29 14:00:00 Ts debe ser mayor o igual a Td Ts=8.3 - Td=8.4 2023-10-23 14:29:00
1 2017-06-29 15:00:00 Ts debe ser mayor o igual a Td Ts=10.5 - Td=10.6 2023-10-23 14:29:00
1 2017-08-11 15:00:00 Ts debe ser mayor o igual a Td Ts=8.9 - Td=9.0 2023-10-23 14:30:00
1 2017-08-18 12:00:00 Ts debe ser mayor o igual a Td Ts=9.4 - Td=9.5 2023-10-23 14:30:00
1 2017-10-01 01:00:00 Ts debe ser mayor o igual a Td Ts=10.6 - Td=10.7 2023-10-23 14:32:00
1 2017-10-04 05:00:00 Ts debe ser mayor o igual a Td Ts=0.0 - Td=8.2 2023-10-23 14:32:00
1 2017-12-02 05:00:00 Ts debe ser mayor o igual a Td Ts=0.0 - Td=12.8 2023-10-23 14:33:00
1 2017-12-02 06:00:00 Ts debe ser mayor o igual a Td Ts=0.0 - Td=12.7 2023-10-23 14:33:00
1 2017-12-02 07:00:00 Ts debe ser mayor o igual a Td Ts=0.0 - Td=12.8 2023-10-23 14:33:00
1 2017-12-02 08:00:00 Ts debe ser mayor o igual a Td Ts=0.0 - Td=12.9 2023-10-23 14:33:00
1 2017-12-02 09:00:00 Ts debe ser mayor o igual a Td Ts=0.0 - Td=12.7 2023-10-23 14:33:00
1 2017-12-02 10:00:00 Ts debe ser mayor o igual a Td Ts=0.0 - Td=13.2 2023-10-23 14:33:00
1 2017-12-02 11:00:00 Ts debe ser mayor o igual a Td Ts=0.0 - Td=13.2 2023-10-23 14:33:00
1 2017-12-02 12:00:00 Ts debe ser mayor o igual a Td Ts=0.0 - Td=13.3 2023-10-23 14:33:00
1 2017-12-02 13:00:00 Ts debe ser mayor o igual a Td Ts=0.0 - Td=13.4 2023-10-23 14:33:00
1 2017-12-02 14:00:00 Ts debe ser mayor o igual a Td Ts=0.0 - Td=13.7 2023-10-23 14:33:00
1 2017-12-02 15:00:00 Ts debe ser mayor o igual a Td Ts=0.0 - Td=13.5 2023-10-23 14:33:00
1 2017-12-02 16:00:00 Ts debe ser mayor o igual a Td Ts=0.0 - Td=13.5 2023-10-23 14:33:00
1 2017-12-02 17:00:00 Ts debe ser mayor o igual a Td Ts=0.0 - Td=13.4 2023-10-23 14:33:00
1 2017-12-02 18:00:00 Ts debe ser mayor o igual a Td Ts=0.0 - Td=13.3 2023-10-23 14:33:00
1 2017-12-02 19:00:00 Ts debe ser mayor o igual a Td Ts=0.0 - Td=13.6 2023-10-23 14:33:00
1 2017-12-02 20:00:00 Ts debe ser mayor o igual a Td Ts=0.0 - Td=13.5 2023-10-23 14:33:00
1 2017-12-02 21:00:00 Ts debe ser mayor o igual a Td Ts=0.0 - Td=12.9 2023-10-23 14:33:00
1 2017-12-02 22:00:00 Ts debe ser mayor o igual a Td Ts=0.0 - Td=12.5 2023-10-23 14:33:00
1 2017-12-02 23:00:00 Ts debe ser mayor o igual a Td Ts=0.0 - Td=11.9 2023-10-23 14:33:00
1 2017-12-03 00:00:00 Ts debe ser mayor o igual a Td Ts=0.0 - Td=12.0 2023-10-23 14:33:00
1 2017-12-03 01:00:00 Ts debe ser mayor o igual a Td Ts=0.0 - Td=12.2 2023-10-23 14:33:00
1 2017-12-03 02:00:00 Ts debe ser mayor o igual a Td Ts=0.0 - Td=11.8 2023-10-23 14:33:00
1 2017-12-03 03:00:00 Ts debe ser mayor o igual a Td Ts=0.0 - Td=11.5 2023-10-23 14:33:00
1 2018-06-29 12:00:00 Ts debe ser mayor o igual a Td Ts=7.6 - Td=7.7 2023-10-23 14:38:00
1 2018-06-30 07:00:00 Ts debe ser mayor o igual a Td Ts=8.2 - Td=8.3 2023-10-23 14:38:00
1 2018-06-30 11:00:00 Ts debe ser mayor o igual a Td Ts=8.5 - Td=8.6 2023-10-23 14:38:00
1 2018-06-30 12:00:00 Ts debe ser mayor o igual a Td Ts=8.4 - Td=8.5 2023-10-23 14:38:00
1 2018-06-30 13:00:00 Ts debe ser mayor o igual a Td Ts=8.6 - Td=8.7 2023-10-23 14:38:00
1 2018-07-03 08:00:00 Ts debe ser mayor o igual a Td Ts=7.1 - Td=7.2 2023-10-23 14:39:00
1 2018-07-03 09:00:00 Ts debe ser mayor o igual a Td Ts=7.6 - Td=7.7 2023-10-23 14:39:00
1 2018-07-03 15:00:00 Ts debe ser mayor o igual a Td Ts=12.2 - Td=12.3 2023-10-23 14:39:00
1 2018-07-07 09:00:00 Ts debe ser mayor o igual a Td Ts=9.2 - Td=9.3 2023-10-23 14:39:00
1 2018-07-09 11:00:00 Ts debe ser mayor o igual a Td Ts=5.6 - Td=5.7 2023-10-23 14:39:00
1 2018-07-09 13:00:00 Ts debe ser mayor o igual a Td Ts=5.7 - Td=5.8 2023-10-23 14:39:00
1 2019-12-02 07:00:00 Ts debe ser mayor o igual a Td Ts=11.1 - Td=11.4 2023-10-23 14:45:00
1 2019-12-03 11:00:00 Ts debe ser mayor o igual a Td Ts=8.2 - Td=10.3 2023-10-23 14:45:00
1 2019-12-04 11:00:00 Ts debe ser mayor o igual a Td Ts=6.7 - Td=7.8 2023-10-23 14:45:00
1 2019-12-06 11:00:00 Ts debe ser mayor o igual a Td Ts=8.3 - Td=9.9 2023-10-23 14:45:00
1 2019-12-10 08:00:00 Ts debe ser mayor o igual a Td Ts=8.2 - Td=8.6 2023-10-23 14:45:00
1 2019-12-17 11:00:00 Ts debe ser mayor o igual a Td Ts=8.1 - Td=8.9 2023-10-23 14:45:00
Errores del Nivel 106
Nivel Fecha del Dato Descripción Información Error Fecha Ingreso
2 2000-06-11 00:00:00 Temperatura 21.2 del 10-06-2000 18:00, Mayor que la Máxima 21.0 11-06-2000 00:00 21.2 -- 21.0 2023-12-28 23:39:00
2 2000-06-13 00:00:00 Temperatura 18.2 del 12-06-2000 18:00, Mayor que la Máxima 18.0 13-06-2000 00:00 18.2 -- 18.0 2023-12-28 23:39:00
2 2000-06-14 00:00:00 Temperatura 16.6 del 14-06-2000 00:00, Mayor que la Máxima 16.0 14-06-2000 00:00 16.6 -- 16.0 2023-12-28 23:39:00
2 2000-06-23 00:00:00 Temperatura 19.8 del 22-06-2000 18:00, Mayor que la Máxima 18.0 23-06-2000 00:00 19.8 -- 18.0 2023-12-28 23:39:00
2 2000-07-15 00:00:00 Temperatura 16.8 del 14-07-2000 18:00, Mayor que la Máxima 16.4 15-07-2000 00:00 16.8 -- 16.4 2023-12-28 23:39:00
2 2000-09-18 00:00:00 Temperatura 18.6 del 18-09-2000 00:00, Mayor que la Máxima 18.0 18-09-2000 00:00 18.6 -- 18.0 2023-12-28 23:39:00
2 2000-11-06 00:00:00 Temperatura 27.6 del 06-11-2000 00:00, Mayor que la Máxima 25.0 06-11-2000 00:00 27.6 -- 25.0 2023-12-28 23:39:00
2 2000-11-30 00:00:00 Temperatura 26.8 del 29-11-2000 18:00, Mayor que la Máxima 26.4 30-11-2000 00:00 26.8 -- 26.4 2023-12-28 23:39:00
2 2000-12-08 00:00:00 Temperatura 24.6 del 07-12-2000 18:00, Mayor que la Máxima 24.0 08-12-2000 00:00 24.6 -- 24.0 2023-12-28 23:39:00
2 2000-12-09 00:00:00 Temperatura 29.4 del 08-12-2000 18:00, Mayor que la Máxima 29.0 09-12-2000 00:00 29.4 -- 29.0 2023-12-28 23:39:00
2 2000-12-11 00:00:00 Temperatura 24.2 del 10-12-2000 18:00, Mayor que la Máxima 24.0 11-12-2000 00:00 24.2 -- 24.0 2023-12-28 23:39:00
2 2000-12-12 00:00:00 Temperatura 30.2 del 11-12-2000 18:00, Mayor que la Máxima 30.0 12-12-2000 00:00 30.2 -- 30.0 2023-12-28 23:39:00
2 2001-01-20 00:00:00 Temperatura 31.2 del 19-01-2001 18:00, Mayor que la Máxima 31.0 20-01-2001 00:00 31.2 -- 31.0 2023-12-28 23:39:00
2 2001-01-22 00:00:00 Temperatura 27.4 del 21-01-2001 18:00, Mayor que la Máxima 27.0 22-01-2001 00:00 27.4 -- 27.0 2023-12-28 23:39:00
2 2001-05-18 00:00:00 Temperatura 19.4 del 17-05-2001 18:00, Mayor que la Máxima 12.0 18-05-2001 00:00 19.4 -- 12.0 2023-12-28 23:40:00
2 2001-06-30 00:00:00 Temperatura 16.6 del 29-06-2001 18:00, Mayor que la Máxima 15.0 30-06-2001 00:00 16.6 -- 15.0 2023-12-28 23:40:00
2 2001-07-07 00:00:00 Temperatura 13.6 del 06-07-2001 18:00, Mayor que la Máxima 12.6 07-07-2001 00:00 13.6 -- 12.6 2023-12-28 23:40:00
2 2001-07-08 00:00:00 Temperatura 16.6 del 07-07-2001 18:00, Mayor que la Máxima 14.8 08-07-2001 00:00 16.6 -- 14.8 2023-12-28 23:40:00
2 2001-07-09 00:00:00 Temperatura 11.0 del 08-07-2001 18:00, Mayor que la Máxima 10.0 09-07-2001 00:00 11.0 -- 10.0 2023-12-28 23:40:00
2 2001-07-16 00:00:00 Temperatura 18.6 del 15-07-2001 18:00, Mayor que la Máxima 18.0 16-07-2001 00:00 18.6 -- 18.0 2023-12-28 23:40:00
2 2001-07-20 00:00:00 Temperatura 12.2 del 20-07-2001 00:00, Mayor que la Máxima 10.9 20-07-2001 00:00 12.2 -- 10.9 2023-12-28 23:40:00
2 2001-07-22 00:00:00 Temperatura 17.2 del 21-07-2001 18:00, Mayor que la Máxima 15.0 22-07-2001 00:00 17.2 -- 15.0 2023-12-28 23:40:00
2 2001-07-23 00:00:00 Temperatura 18.9 del 22-07-2001 18:00, Mayor que la Máxima 14.2 23-07-2001 00:00 18.9 -- 14.2 2023-12-28 23:40:00
2 2001-08-11 00:00:00 Temperatura 14.2 del 10-08-2001 18:00, Mayor que la Máxima 12.0 11-08-2001 00:00 14.2 -- 12.0 2023-12-28 23:40:00
2 2001-08-12 00:00:00 Temperatura 13.6 del 11-08-2001 18:00, Mayor que la Máxima 12.0 12-08-2001 00:00 13.6 -- 12.0 2023-12-28 23:40:00
2 2001-08-13 00:00:00 Temperatura 18.0 del 12-08-2001 18:00, Mayor que la Máxima 16.0 13-08-2001 00:00 18.0 -- 16.0 2023-12-28 23:40:00
2 2001-09-01 00:00:00 Temperatura 15.6 del 31-08-2001 18:00, Mayor que la Máxima 14.0 01-09-2001 00:00 15.6 -- 14.0 2023-12-28 23:40:00
2 2001-10-22 00:00:00 Temperatura 27.6 del 21-10-2001 18:00, Mayor que la Máxima 27.4 22-10-2001 00:00 27.6 -- 27.4 2023-12-28 23:40:00
2 2001-12-18 00:00:00 Temperatura 26.8 del 17-12-2001 18:00, Mayor que la Máxima 25.0 18-12-2001 00:00 26.8 -- 25.0 2023-12-28 23:40:00
2 2001-12-29 00:00:00 Temperatura 27.1 del 28-12-2001 18:00, Mayor que la Máxima 2.0 29-12-2001 00:00 27.1 -- 2.0 2023-12-28 23:40:00
2 2002-01-05 00:00:00 Temperatura 29.9 del 04-01-2002 18:00, Mayor que la Máxima 28.9 05-01-2002 00:00 29.9 -- 28.9 2023-12-28 23:40:00
2 2002-01-17 00:00:00 Temperatura 25.0 del 16-01-2002 18:00, Mayor que la Máxima 24.0 17-01-2002 00:00 25.0 -- 24.0 2023-12-28 23:40:00
2 2002-03-15 00:00:00 Temperatura 28.2 del 15-03-2002 00:00, Mayor que la Máxima 24.0 15-03-2002 00:00 28.2 -- 24.0 2023-12-28 23:40:00
2 2002-03-19 00:00:00 Temperatura 24.9 del 18-03-2002 18:00, Mayor que la Máxima 24.0 19-03-2002 00:00 24.9 -- 24.0 2023-12-28 23:40:00
2 2002-03-20 00:00:00 Temperatura 29.7 del 19-03-2002 18:00, Mayor que la Máxima 29.0 20-03-2002 00:00 29.7 -- 29.0 2023-12-28 23:40:00
2 2002-03-21 00:00:00 Temperatura 31.4 del 20-03-2002 18:00, Mayor que la Máxima 31.0 21-03-2002 00:00 31.4 -- 31.0 2023-12-28 23:40:00
2 2002-03-25 00:00:00 Temperatura 28.8 del 24-03-2002 18:00, Mayor que la Máxima 28.5 25-03-2002 00:00 28.8 -- 28.5 2023-12-28 23:40:00
2 2002-07-05 00:00:00 Temperatura 11.8 del 04-07-2002 18:00, Mayor que la Máxima 11.0 05-07-2002 00:00 11.8 -- 11.0 2023-12-28 23:40:00
2 2002-08-20 00:00:00 Temperatura 14.2 del 19-08-2002 18:00, Mayor que la Máxima 13.5 20-08-2002 00:00 14.2 -- 13.5 2023-12-28 23:40:00
2 2002-12-01 00:00:00 Temperatura 16.0 del 01-12-2002 00:00, Mayor que la Máxima 15.6 01-12-2002 00:00 16.0 -- 15.6 2023-12-28 23:41:00
2 2003-03-20 00:00:00 Temperatura 18.4 del 19-03-2003 18:00, Mayor que la Máxima 17.0 20-03-2003 00:00 18.4 -- 17.0 2023-12-28 23:41:00
2 2003-03-21 00:00:00 Temperatura 25.6 del 20-03-2003 18:00, Mayor que la Máxima 25.0 21-03-2003 00:00 25.6 -- 25.0 2023-12-28 23:41:00
2 2003-04-14 00:00:00 Temperatura 18.2 del 13-04-2003 18:00, Mayor que la Máxima 16.2 14-04-2003 00:00 18.2 -- 16.2 2023-12-28 23:41:00
2 2003-04-17 00:00:00 Temperatura 16.6 del 16-04-2003 18:00, Mayor que la Máxima 15.6 17-04-2003 00:00 16.6 -- 15.6 2023-12-28 23:41:00
2 2003-06-03 00:00:00 Temperatura 17.4 del 02-06-2003 18:00, Mayor que la Máxima 14.0 03-06-2003 00:00 17.4 -- 14.0 2023-12-28 23:41:00
2 2004-01-28 00:00:00 Temperatura 31.0 del 27-01-2004 18:00, Mayor que la Máxima 30.0 28-01-2004 00:00 31.0 -- 30.0 2023-12-28 23:41:00
2 2004-03-24 00:00:00 Temperatura 26.2 del 23-03-2004 18:00, Mayor que la Máxima 21.2 24-03-2004 00:00 26.2 -- 21.2 2023-12-28 23:41:00
2 2004-06-27 00:00:00 Temperatura 15.8 del 26-06-2004 18:00, Mayor que la Máxima 15.2 27-06-2004 00:00 15.8 -- 15.2 2023-12-28 23:41:00
2 2004-10-02 00:00:00 Temperatura 25.4 del 01-10-2004 18:00, Mayor que la Máxima 15.0 02-10-2004 00:00 25.4 -- 15.0 2023-12-28 23:42:00
2 2004-10-17 00:00:00 Temperatura 24.2 del 16-10-2004 18:00, Mayor que la Máxima 20.0 17-10-2004 00:00 24.2 -- 20.0 2023-12-28 23:42:00
2 2004-10-18 00:00:00 Temperatura 20.2 del 17-10-2004 18:00, Mayor que la Máxima 16.0 18-10-2004 00:00 20.2 -- 16.0 2023-12-28 23:42:00
2 2004-10-19 00:00:00 Temperatura 25.0 del 18-10-2004 18:00, Mayor que la Máxima 24.0 19-10-2004 00:00 25.0 -- 24.0 2023-12-28 23:42:00
2 2004-10-23 00:00:00 Temperatura 22.0 del 22-10-2004 18:00, Mayor que la Máxima 20.0 23-10-2004 00:00 22.0 -- 20.0 2023-12-28 23:42:00
2 2004-10-24 00:00:00 Temperatura 22.2 del 23-10-2004 18:00, Mayor que la Máxima 22.0 24-10-2004 00:00 22.2 -- 22.0 2023-12-28 23:42:00
2 2004-10-25 00:00:00 Temperatura 22.2 del 24-10-2004 18:00, Mayor que la Máxima 20.0 25-10-2004 00:00 22.2 -- 20.0 2023-12-28 23:42:00
2 2004-10-26 00:00:00 Temperatura 22.6 del 25-10-2004 18:00, Mayor que la Máxima 20.0 26-10-2004 00:00 22.6 -- 20.0 2023-12-28 23:42:00
2 2004-10-27 00:00:00 Temperatura 25.0 del 26-10-2004 18:00, Mayor que la Máxima 22.0 27-10-2004 00:00 25.0 -- 22.0 2023-12-28 23:42:00
2 2004-10-28 00:00:00 Temperatura 27.6 del 27-10-2004 18:00, Mayor que la Máxima 25.0 28-10-2004 00:00 27.6 -- 25.0 2023-12-28 23:42:00
2 2004-12-21 00:00:00 Temperatura 27.6 del 20-12-2004 18:00, Mayor que la Máxima 24.0 21-12-2004 00:00 27.6 -- 24.0 2023-12-28 23:42:00
2 2004-12-22 00:00:00 Temperatura 28.0 del 21-12-2004 18:00, Mayor que la Máxima 24.0 22-12-2004 00:00 28.0 -- 24.0 2023-12-28 23:42:00
2 2004-12-23 00:00:00 Temperatura 31.0 del 22-12-2004 18:00, Mayor que la Máxima 25.4 23-12-2004 00:00 31.0 -- 25.4 2023-12-28 23:42:00
2 2004-12-25 00:00:00 Temperatura 30.6 del 24-12-2004 18:00, Mayor que la Máxima 25.0 25-12-2004 00:00 30.6 -- 25.0 2023-12-28 23:42:00
2 2004-12-26 00:00:00 Temperatura 28.4 del 25-12-2004 18:00, Mayor que la Máxima 26.0 26-12-2004 00:00 28.4 -- 26.0 2023-12-28 23:42:00
2 2004-12-27 00:00:00 Temperatura 24.4 del 26-12-2004 18:00, Mayor que la Máxima 22.0 27-12-2004 00:00 24.4 -- 22.0 2023-12-28 23:42:00
2 2004-12-28 00:00:00 Temperatura 23.6 del 27-12-2004 18:00, Mayor que la Máxima 20.0 28-12-2004 00:00 23.6 -- 20.0 2023-12-28 23:42:00
2 2004-12-29 00:00:00 Temperatura 22.2 del 28-12-2004 18:00, Mayor que la Máxima 21.0 29-12-2004 00:00 22.2 -- 21.0 2023-12-28 23:42:00
2 2006-10-27 00:00:00 Temperatura 17.2 del 27-10-2006 00:00, Mayor que la Máxima 16.0 27-10-2006 00:00 17.2 -- 16.0 2023-12-31 01:24:00
2 2009-02-03 00:00:00 Temperatura 26.9 del 02-02-2009 21:00, Mayor que la Máxima 26.4 03-02-2009 00:00 26.9 -- 26.4 2023-12-31 00:51:00
2 2009-02-04 00:00:00 Temperatura 30.8 del 03-02-2009 18:00, Mayor que la Máxima 30.6 04-02-2009 00:00 30.8 -- 30.6 2023-12-31 00:51:00
2 2009-02-05 00:00:00 Temperatura 30.6 del 04-02-2009 18:00, Mayor que la Máxima 29.4 05-02-2009 00:00 30.6 -- 29.4 2023-12-31 00:51:00
2 2009-02-12 00:00:00 Temperatura 36.2 del 11-02-2009 21:00, Mayor que la Máxima 36.0 12-02-2009 00:00 36.2 -- 36.0 2023-12-31 00:51:00
2 2009-02-13 00:00:00 Temperatura 30.1 del 12-02-2009 19:00, Mayor que la Máxima 30.0 13-02-2009 00:00 30.1 -- 30.0 2023-12-31 00:51:00
2 2009-02-14 00:00:00 Temperatura 32.2 del 13-02-2009 20:00, Mayor que la Máxima 31.6 14-02-2009 00:00 32.2 -- 31.6 2023-12-31 00:51:00
2 2009-02-15 00:00:00 Temperatura 28.9 del 14-02-2009 20:00, Mayor que la Máxima 27.0 15-02-2009 00:00 28.9 -- 27.0 2023-12-31 00:51:00
2 2009-02-16 00:00:00 Temperatura 28.9 del 15-02-2009 18:00, Mayor que la Máxima 27.4 16-02-2009 00:00 28.9 -- 27.4 2023-12-31 00:51:00
2 2009-02-17 00:00:00 Temperatura 31.3 del 16-02-2009 21:00, Mayor que la Máxima 28.6 17-02-2009 00:00 31.3 -- 28.6 2023-12-31 00:51:00
2 2009-02-18 00:00:00 Temperatura 32.3 del 17-02-2009 19:00, Mayor que la Máxima 30.2 18-02-2009 00:00 32.3 -- 30.2 2023-12-31 00:51:00
2 2009-02-20 00:00:00 Temperatura 28.0 del 19-02-2009 20:00, Mayor que la Máxima 27.2 20-02-2009 00:00 28.0 -- 27.2 2023-12-31 00:51:00
2 2010-01-01 00:00:00 Temperatura 27.9 del 31-12-2009 17:00, Mayor que la Máxima 15.0 01-01-2010 00:00 27.9 -- 15.0 2020-10-27 11:10:00
2 2010-01-01 00:00:00 Temperatura 21.8 del 01-01-2010 00:00, Mayor que la Máxima 15.0 01-01-2010 00:00 21.8 -- 15.0 2020-10-27 11:10:00
2 2010-02-26 00:00:00 Temperatura 23.6 del 25-02-2010 15:00, Mayor que la Máxima 23.5 26-02-2010 00:00 23.6 -- 23.5 2020-10-27 11:40:00
2 2010-04-27 00:00:00 Temperatura 20.1 del 26-04-2010 16:00, Mayor que la Máxima 19.7 27-04-2010 00:00 20.1 -- 19.7 2020-10-27 12:38:00
2 2010-05-15 00:00:00 Temperatura 13.6 del 14-05-2010 16:00, Mayor que la Máxima 13.3 15-05-2010 00:00 13.6 -- 13.3 2020-10-27 13:03:00
2 2010-07-07 00:00:00 Temperatura 12.2 del 06-07-2010 15:00, Mayor que la Máxima 9.8 07-07-2010 00:00 12.2 -- 9.8 2020-10-27 13:57:00
2 2010-07-12 00:00:00 Temperatura 13.6 del 11-07-2010 16:00, Mayor que la Máxima 13.1 12-07-2010 00:00 13.6 -- 13.1 2020-10-27 13:58:00
2 2010-07-30 00:00:00 Temperatura 13.9 del 29-07-2010 16:00, Mayor que la Máxima 11.6 30-07-2010 00:00 13.9 -- 11.6 2020-10-27 13:59:00
2 2010-07-31 00:00:00 Temperatura 13.1 del 30-07-2010 16:00, Mayor que la Máxima 11.8 31-07-2010 00:00 13.1 -- 11.8 2020-10-27 14:00:00
2 2010-08-16 00:00:00 Temperatura 14.0 del 15-08-2010 15:00, Mayor que la Máxima 12.7 16-08-2010 00:00 14.0 -- 12.7 2020-10-27 14:29:00
2 2010-09-28 00:00:00 Temperatura 18.8 del 27-09-2010 16:00, Mayor que la Máxima 18.4 28-09-2010 00:00 18.8 -- 18.4 2020-10-27 15:05:00
2 2010-10-15 00:00:00 Temperatura 19.1 del 14-10-2010 15:00, Mayor que la Máxima 18.5 15-10-2010 00:00 19.1 -- 18.5 2020-10-27 15:31:00
2 2010-11-25 00:00:00 Temperatura 26.2 del 24-11-2010 18:00, Mayor que la Máxima 24.7 25-11-2010 00:00 26.2 -- 24.7 2020-10-27 16:00:00
2 2011-04-26 00:00:00 Temperatura 26.1 del 25-04-2011 17:00, Mayor que la Máxima 25.2 26-04-2011 00:00 26.1 -- 25.2 2020-10-27 12:41:00
2 2011-06-21 00:00:00 Temperatura 10.5 del 20-06-2011 14:00, Mayor que la Máxima 10.3 21-06-2011 00:00 10.5 -- 10.3 2020-10-27 13:34:00
2 2011-07-31 00:00:00 Temperatura 11.5 del 30-07-2011 15:00, Mayor que la Máxima 10.5 31-07-2011 00:00 11.5 -- 10.5 2020-10-27 14:03:00
2 2011-08-15 00:00:00 Temperatura 14.7 del 14-08-2011 15:00, Mayor que la Máxima 14.4 15-08-2011 00:00 14.7 -- 14.4 2020-10-27 14:34:00
2 2011-08-27 00:00:00 Temperatura 13.6 del 26-08-2011 15:00, Mayor que la Máxima 12.6 27-08-2011 00:00 13.6 -- 12.6 2020-10-27 14:35:00
2 2011-09-04 00:00:00 Temperatura 18.0 del 03-09-2011 15:00, Mayor que la Máxima 16.8 04-09-2011 00:00 18.0 -- 16.8 2020-10-27 15:06:00
2 2011-10-04 00:00:00 Temperatura 15.0 del 03-10-2011 15:00, Mayor que la Máxima 14.5 04-10-2011 00:00 15.0 -- 14.5 2020-10-27 15:33:00
2 2012-05-26 00:00:00 Temperatura 17.9 del 25-05-2012 15:00, Mayor que la Máxima 17.3 26-05-2012 00:00 17.9 -- 17.3 2020-10-27 13:11:00
2 2012-08-23 00:00:00 Temperatura 11.7 del 22-08-2012 13:00, Mayor que la Máxima 9.7 23-08-2012 00:00 11.7 -- 9.7 2020-10-27 14:39:00
2 2012-11-09 00:00:00 Temperatura 19.1 del 08-11-2012 14:00, Mayor que la Máxima 18.5 09-11-2012 00:00 19.1 -- 18.5 2020-10-27 16:04:00
2 2012-12-04 00:00:00 Temperatura 28.6 del 03-12-2012 15:00, Mayor que la Máxima 27.7 04-12-2012 00:00 28.6 -- 27.7 2020-10-27 16:27:00
2 2012-12-20 00:00:00 Temperatura 14.5 del 19-12-2012 13:00, Mayor que la Máxima 14.4 20-12-2012 00:00 14.5 -- 14.4 2020-10-27 16:28:00
2 2013-05-27 00:00:00 Temperatura 18.4 del 26-05-2013 18:00, Mayor que la Máxima 9.8 27-05-2013 00:00 18.4 -- 9.8 2020-10-27 13:14:00
2 2013-06-08 00:00:00 Temperatura 14.9 del 07-06-2013 18:00, Mayor que la Máxima 14.7 08-06-2013 00:00 14.9 -- 14.7 2020-10-27 13:40:00
2 2013-06-11 00:00:00 Temperatura 16.4 del 10-06-2013 15:00, Mayor que la Máxima 15.9 11-06-2013 00:00 16.4 -- 15.9 2020-10-27 13:40:00
2 2013-06-14 00:00:00 Temperatura 17.7 del 13-06-2013 15:00, Mayor que la Máxima 17.3 14-06-2013 00:00 17.7 -- 17.3 2020-10-27 13:40:00
2 2013-06-24 00:00:00 Temperatura 19.4 del 23-06-2013 18:00, Mayor que la Máxima 16.5 24-06-2013 00:00 19.4 -- 16.5 2020-10-27 13:41:00
2 2013-06-26 00:00:00 Temperatura 13.9 del 25-06-2013 17:00, Mayor que la Máxima 12.2 26-06-2013 00:00 13.9 -- 12.2 2020-10-27 13:41:00
2 2013-08-02 00:00:00 Temperatura 14.6 del 01-08-2013 15:00, Mayor que la Máxima 13.8 02-08-2013 00:00 14.6 -- 13.8 2020-10-27 14:41:00
2 2013-09-10 00:00:00 Temperatura 21.5 del 09-09-2013 14:00, Mayor que la Máxima 17.7 10-09-2013 00:00 21.5 -- 17.7 2020-10-27 15:12:00
2 2013-10-03 00:00:00 Temperatura 18.9 del 02-10-2013 15:00, Mayor que la Máxima 17.5 03-10-2013 00:00 18.9 -- 17.5 2020-10-27 15:39:00
2 2013-10-10 00:00:00 Temperatura 26.3 del 09-10-2013 17:00, Mayor que la Máxima 8.5 10-10-2013 00:00 26.3 -- 8.5 2020-10-27 15:39:00
2 2013-11-10 00:00:00 Temperatura 22.8 del 09-11-2013 15:00, Mayor que la Máxima 22.1 10-11-2013 00:00 22.8 -- 22.1 2020-10-27 16:07:00
2 2013-12-04 00:00:00 Temperatura 33.6 del 03-12-2013 15:00, Mayor que la Máxima 33.4 04-12-2013 00:00 33.6 -- 33.4 2020-10-27 16:30:00
2 2014-01-13 00:00:00 Temperatura 29.6 del 12-01-2014 17:00, Mayor que la Máxima 13.8 13-01-2014 00:00 29.6 -- 13.8 2020-10-27 11:23:00
2 2014-02-01 00:00:00 Temperatura 33.4 del 31-01-2014 18:00, Mayor que la Máxima 31.7 01-02-2014 00:00 33.4 -- 31.7 2020-10-27 11:51:00
2 2014-02-26 00:00:00 Temperatura 31.7 del 25-02-2014 19:00, Mayor que la Máxima 29.6 26-02-2014 00:00 31.7 -- 29.6 2020-10-27 11:53:00
2 2014-03-03 00:00:00 Temperatura 27.8 del 02-03-2014 19:00, Mayor que la Máxima 26.7 03-03-2014 00:00 27.8 -- 26.7 2020-10-27 11:53:00
2 2014-03-08 00:00:00 Temperatura 34.5 del 07-03-2014 20:00, Mayor que la Máxima 33.3 08-03-2014 00:00 34.5 -- 33.3 2020-10-27 12:20:00
2 2014-03-16 00:00:00 Temperatura 29.1 del 15-03-2014 18:00, Mayor que la Máxima 10.4 16-03-2014 00:00 29.1 -- 10.4 2020-10-27 12:21:00
2 2014-03-30 00:00:00 Temperatura 23.7 del 29-03-2014 17:00, Mayor que la Máxima 13.5 30-03-2014 00:00 23.7 -- 13.5 2020-10-27 12:22:00
2 2014-07-15 00:00:00 Temperatura 12.9 del 14-07-2014 17:00, Mayor que la Máxima 12.4 15-07-2014 00:00 12.9 -- 12.4 2020-10-27 14:10:00
2 2014-08-19 00:00:00 Temperatura 26.1 del 18-08-2014 15:00, Mayor que la Máxima 25.0 19-08-2014 00:00 26.1 -- 25.0 2020-10-27 14:47:00
2 2014-09-01 00:00:00 Temperatura 17.2 del 31-08-2014 15:00, Mayor que la Máxima 16.5 01-09-2014 00:00 17.2 -- 16.5 2020-10-27 15:15:00
2 2014-10-06 00:00:00 Temperatura 25.6 del 05-10-2014 19:00, Mayor que la Máxima 21.4 06-10-2014 00:00 25.6 -- 21.4 2020-10-27 15:42:00
2 2014-12-01 00:00:00 Temperatura 25.0 del 30-11-2014 17:00, Mayor que la Máxima 23.8 01-12-2014 00:00 25.0 -- 23.8 2020-10-27 16:12:00
2 2015-04-06 00:00:00 Temperatura 29.7 del 05-04-2015 18:00, Mayor que la Máxima 14.4 06-04-2015 00:00 29.7 -- 14.4 2020-10-27 12:49:00
2 2015-04-10 00:00:00 Temperatura 32.5 del 09-04-2015 20:00, Mayor que la Máxima 14.3 10-04-2015 00:00 32.5 -- 14.3 2020-10-27 12:49:00
2 2015-04-16 00:00:00 Temperatura 23.5 del 15-04-2015 18:00, Mayor que la Máxima 13.7 16-04-2015 00:00 23.5 -- 13.7 2020-10-27 12:50:00
2 2015-04-18 00:00:00 Temperatura 29.8 del 17-04-2015 19:00, Mayor que la Máxima 11.6 18-04-2015 00:00 29.8 -- 11.6 2020-10-27 12:50:00
2 2015-04-24 00:00:00 Temperatura 27.8 del 23-04-2015 18:00, Mayor que la Máxima 11.8 24-04-2015 00:00 27.8 -- 11.8 2020-10-27 12:51:00
2 2015-04-30 00:00:00 Temperatura 29.1 del 29-04-2015 18:00, Mayor que la Máxima 11.1 30-04-2015 00:00 29.1 -- 11.1 2020-10-27 12:51:00
2 2015-05-04 00:00:00 Temperatura 24.8 del 03-05-2015 18:00, Mayor que la Máxima 6.2 04-05-2015 00:00 24.8 -- 6.2 2020-10-27 13:15:00
2 2015-05-16 00:00:00 Temperatura 23.4 del 15-05-2015 18:00, Mayor que la Máxima 7.7 16-05-2015 00:00 23.4 -- 7.7 2020-10-27 13:16:00
2 2015-05-24 00:00:00 Temperatura 20.1 del 23-05-2015 17:00, Mayor que la Máxima 4.2 24-05-2015 00:00 20.1 -- 4.2 2020-10-27 13:17:00
2 2015-05-26 00:00:00 Temperatura 19.5 del 25-05-2015 17:00, Mayor que la Máxima 16.1 26-05-2015 00:00 19.5 -- 16.1 2020-10-27 13:17:00
2 2015-06-10 00:00:00 Temperatura 20.7 del 09-06-2015 17:00, Mayor que la Máxima 18.9 10-06-2015 00:00 20.7 -- 18.9 2020-10-27 13:42:00
2 2015-06-11 00:00:00 Temperatura 19.7 del 10-06-2015 19:00, Mayor que la Máxima 18.9 11-06-2015 00:00 19.7 -- 18.9 2020-10-27 13:42:00
2 2015-06-13 00:00:00 Temperatura 18.8 del 12-06-2015 18:00, Mayor que la Máxima 17.2 13-06-2015 00:00 18.8 -- 17.2 2020-10-27 13:43:00
2 2015-06-28 00:00:00 Temperatura 21.2 del 27-06-2015 18:00, Mayor que la Máxima 4.1 28-06-2015 00:00 21.2 -- 4.1 2020-10-27 13:44:00
2 2015-06-30 00:00:00 Temperatura 17.9 del 29-06-2015 18:00, Mayor que la Máxima 5.8 30-06-2015 00:00 17.9 -- 5.8 2020-10-27 13:44:00
2 2015-07-05 00:00:00 Temperatura 18.9 del 04-07-2015 18:00, Mayor que la Máxima 5.2 05-07-2015 00:00 18.9 -- 5.2 2020-10-27 14:12:00
2 2015-07-06 00:00:00 Temperatura 12.0 del 05-07-2015 15:00, Mayor que la Máxima 8.3 06-07-2015 00:00 12.0 -- 8.3 2020-10-27 14:12:00
2 2015-07-11 00:00:00 Temperatura 22.1 del 10-07-2015 17:00, Mayor que la Máxima 21.8 11-07-2015 00:00 22.1 -- 21.8 2020-10-27 14:13:00
2 2015-12-27 00:00:00 Temperatura 33.1 del 26-12-2015 18:00, Mayor que la Máxima 15.7 27-12-2015 00:00 33.1 -- 15.7 2020-10-27 16:38:00
2 2016-01-13 00:00:00 Temperatura 28.8 del 12-01-2016 19:00, Mayor que la Máxima 28.7 13-01-2016 00:00 28.8 -- 28.7 2020-10-27 11:29:00
2 2016-01-19 00:00:00 Temperatura 31.3 del 18-01-2016 18:00, Mayor que la Máxima 31.2 19-01-2016 00:00 31.3 -- 31.2 2020-10-27 11:30:00
2 2016-01-22 00:00:00 Temperatura 29.8 del 21-01-2016 20:00, Mayor que la Máxima 29.7 22-01-2016 00:00 29.8 -- 29.7 2020-10-27 11:30:00
2 2016-02-06 00:00:00 Temperatura 32.8 del 05-02-2016 19:00, Mayor que la Máxima 32.7 06-02-2016 00:00 32.8 -- 32.7 2020-10-27 11:58:00
2 2016-03-02 00:00:00 Temperatura 33.6 del 01-03-2016 18:00, Mayor que la Máxima 33.5 02-03-2016 00:00 33.6 -- 33.5 2020-10-27 12:01:00
2 2016-03-08 00:00:00 Temperatura 23.8 del 07-03-2016 18:00, Mayor que la Máxima 23.7 08-03-2016 00:00 23.8 -- 23.7 2020-10-27 12:26:00
2 2016-03-15 00:00:00 Temperatura 27.9 del 14-03-2016 20:00, Mayor que la Máxima 27.8 15-03-2016 00:00 27.9 -- 27.8 2020-10-27 12:27:00
2 2016-04-04 00:00:00 Temperatura 18.3 del 03-04-2016 20:00, Mayor que la Máxima 18.2 04-04-2016 00:00 18.3 -- 18.2 2020-10-27 12:52:00
2 2016-04-11 00:00:00 Temperatura 29.8 del 10-04-2016 20:00, Mayor que la Máxima 29.7 11-04-2016 00:00 29.8 -- 29.7 2020-10-27 12:53:00
2 2016-04-18 00:00:00 Temperatura 15.7 del 17-04-2016 19:00, Mayor que la Máxima 15.6 18-04-2016 00:00 15.7 -- 15.6 2020-10-27 12:53:00
2 2016-04-19 00:00:00 Temperatura 18.9 del 18-04-2016 16:00, Mayor que la Máxima 18.8 19-04-2016 00:00 18.9 -- 18.8 2020-10-27 12:53:00
2 2016-04-25 00:00:00 Temperatura 17.3 del 24-04-2016 19:00, Mayor que la Máxima 17.2 25-04-2016 00:00 17.3 -- 17.2 2020-10-27 12:54:00
2 2016-04-28 00:00:00 Temperatura 18.8 del 27-04-2016 18:00, Mayor que la Máxima 18.7 28-04-2016 00:00 18.8 -- 18.7 2020-10-27 12:54:00
2 2016-05-06 00:00:00 Temperatura 19.9 del 05-05-2016 16:00, Mayor que la Máxima 19.8 06-05-2016 00:00 19.9 -- 19.8 2020-10-27 13:18:00
2 2016-05-10 00:00:00 Temperatura 21.9 del 09-05-2016 19:00, Mayor que la Máxima 21.8 10-05-2016 00:00 21.9 -- 21.8 2020-10-27 13:18:00
2 2016-05-12 00:00:00 Temperatura 16.3 del 11-05-2016 16:00, Mayor que la Máxima 16.2 12-05-2016 00:00 16.3 -- 16.2 2020-10-27 13:19:00
2 2016-05-26 00:00:00 Temperatura 19.8 del 25-05-2016 19:00, Mayor que la Máxima 19.7 26-05-2016 00:00 19.8 -- 19.7 2020-10-27 13:20:00
2 2016-05-28 00:00:00 Temperatura 19.8 del 27-05-2016 17:00, Mayor que la Máxima 19.7 28-05-2016 00:00 19.8 -- 19.7 2020-10-27 13:20:00
2 2016-06-06 00:00:00 Temperatura 16.8 del 05-06-2016 19:00, Mayor que la Máxima 16.7 06-06-2016 00:00 16.8 -- 16.7 2020-10-27 13:45:00
2 2016-06-09 00:00:00 Temperatura 21.8 del 08-06-2016 18:00, Mayor que la Máxima 21.7 09-06-2016 00:00 21.8 -- 21.7 2020-10-27 13:46:00
2 2016-06-12 00:00:00 Temperatura 17.3 del 11-06-2016 19:00, Mayor que la Máxima 17.2 12-06-2016 00:00 17.3 -- 17.2 2020-10-27 13:46:00
2 2016-07-05 00:00:00 Temperatura 18.9 del 04-07-2016 19:00, Mayor que la Máxima 18.8 05-07-2016 00:00 18.9 -- 18.8 2020-10-27 14:15:00
2 2016-07-06 00:00:00 Temperatura 17.4 del 05-07-2016 18:00, Mayor que la Máxima 17.3 06-07-2016 00:00 17.4 -- 17.3 2020-10-27 14:15:00
2 2016-07-08 00:00:00 Temperatura 19.3 del 07-07-2016 18:00, Mayor que la Máxima 19.2 08-07-2016 00:00 19.3 -- 19.2 2020-10-27 14:16:00
2 2016-07-31 00:00:00 Temperatura 17.3 del 30-07-2016 20:00, Mayor que la Máxima 17.2 31-07-2016 00:00 17.3 -- 17.2 2020-10-27 14:18:00
2 2016-08-06 00:00:00 Temperatura 19.8 del 05-08-2016 19:00, Mayor que la Máxima 19.7 06-08-2016 00:00 19.8 -- 19.7 2020-10-27 14:53:00
2 2016-08-23 00:00:00 Temperatura 21.9 del 22-08-2016 17:00, Mayor que la Máxima 21.8 23-08-2016 00:00 21.9 -- 21.8 2020-10-27 14:54:00
2 2016-08-28 00:00:00 Temperatura 15.6 del 27-08-2016 14:00, Mayor que la Máxima 15.1 28-08-2016 00:00 15.6 -- 15.1 2020-10-27 14:55:00
2 2016-08-31 00:00:00 Temperatura 22.9 del 30-08-2016 20:00, Mayor que la Máxima 22.8 31-08-2016 00:00 22.9 -- 22.8 2020-10-27 14:55:00
2 2016-09-20 00:00:00 Temperatura 28.4 del 19-09-2016 18:00, Mayor que la Máxima 28.3 20-09-2016 00:00 28.4 -- 28.3 2020-10-27 15:22:00
2 2016-09-28 00:00:00 Temperatura 21.3 del 27-09-2016 19:00, Mayor que la Máxima 21.2 28-09-2016 00:00 21.3 -- 21.2 2020-10-27 15:23:00
2 2016-10-13 00:00:00 Temperatura 21.9 del 12-10-2016 17:00, Mayor que la Máxima 21.8 13-10-2016 00:00 21.9 -- 21.8 2020-10-27 15:48:00
2 2016-10-15 00:00:00 Temperatura 25.3 del 14-10-2016 16:00, Mayor que la Máxima 25.2 15-10-2016 00:00 25.3 -- 25.2 2020-10-27 15:48:00
2 2016-10-27 00:00:00 Temperatura 35.6 del 26-10-2016 19:00, Mayor que la Máxima 35.5 27-10-2016 00:00 35.6 -- 35.5 2020-10-27 15:49:00
2 2016-10-28 00:00:00 Temperatura 26.9 del 27-10-2016 15:00, Mayor que la Máxima 26.0 28-10-2016 00:00 26.9 -- 26.0 2020-10-27 15:49:00
2 2016-10-30 00:00:00 Temperatura 25.9 del 29-10-2016 19:00, Mayor que la Máxima 25.8 30-10-2016 00:00 25.9 -- 25.8 2020-10-27 15:50:00
2 2016-11-05 00:00:00 Temperatura 32.9 del 04-11-2016 14:00, Mayor que la Máxima 29.4 05-11-2016 00:00 32.9 -- 29.4 2020-10-27 16:15:00
2 2016-11-15 00:00:00 Temperatura 28.5 del 14-11-2016 19:00, Mayor que la Máxima 28.0 15-11-2016 00:00 28.5 -- 28.0 2020-10-27 16:16:00
2 2016-11-24 00:00:00 Temperatura 22.5 del 23-11-2016 13:00, Mayor que la Máxima 21.8 24-11-2016 00:00 22.5 -- 21.8 2020-10-27 16:17:00
2 2016-12-10 00:00:00 Temperatura 22.4 del 09-12-2016 17:00, Mayor que la Máxima 22.3 10-12-2016 00:00 22.4 -- 22.3 2020-10-27 16:39:00
2 2016-12-18 00:00:00 Temperatura 26.9 del 17-12-2016 16:00, Mayor que la Máxima 26.8 18-12-2016 00:00 26.9 -- 26.8 2020-10-27 16:40:00
2 2016-12-26 00:00:00 Temperatura 25.8 del 25-12-2016 18:00, Mayor que la Máxima 25.7 26-12-2016 00:00 25.8 -- 25.7 2020-10-27 16:41:00
2 2016-12-27 00:00:00 Temperatura 24.9 del 26-12-2016 18:00, Mayor que la Máxima 24.8 27-12-2016 00:00 24.9 -- 24.8 2020-10-27 16:41:00
2 2016-12-30 00:00:00 Temperatura 28.3 del 29-12-2016 18:00, Mayor que la Máxima 28.2 30-12-2016 00:00 28.3 -- 28.2 2020-10-27 16:41:00
2 2017-01-13 00:00:00 Temperatura 33.1 del 12-01-2017 18:00, Mayor que la Máxima 33.0 13-01-2017 00:00 33.1 -- 33.0 2020-10-27 11:33:00
2 2017-01-23 00:00:00 Temperatura 33.6 del 22-01-2017 17:00, Mayor que la Máxima 33.5 23-01-2017 00:00 33.6 -- 33.5 2020-10-27 11:34:00
2 2017-01-25 00:00:00 Temperatura 37.6 del 24-01-2017 19:00, Mayor que la Máxima 37.5 25-01-2017 00:00 37.6 -- 37.5 2020-10-27 11:34:00
2 2017-02-02 00:00:00 Temperatura 32.9 del 01-02-2017 18:00, Mayor que la Máxima 14.0 02-02-2017 00:00 32.9 -- 14.0 2020-10-27 12:01:00
2 2017-02-06 00:00:00 Temperatura 37.7 del 05-02-2017 18:00, Mayor que la Máxima 16.7 06-02-2017 00:00 37.7 -- 16.7 2020-10-27 12:01:00
2 2017-03-06 00:00:00 Temperatura 33.4 del 05-03-2017 17:00, Mayor que la Máxima 15.5 06-03-2017 00:00 33.4 -- 15.5 2020-10-27 12:29:00
2 2017-03-09 00:00:00 Temperatura 30.3 del 08-03-2017 18:00, Mayor que la Máxima 10.8 09-03-2017 00:00 30.3 -- 10.8 2020-10-27 12:29:00
2 2017-04-04 00:00:00 Temperatura 28.3 del 03-04-2017 19:00, Mayor que la Máxima 26.4 04-04-2017 00:00 28.3 -- 26.4 2020-10-27 12:55:00
2 2017-04-28 00:00:00 Temperatura 30.0 del 27-04-2017 19:00, Mayor que la Máxima 29.8 28-04-2017 00:00 30.0 -- 29.8 2020-10-27 12:58:00
2 2017-05-11 00:00:00 Temperatura 20.7 del 10-05-2017 15:00, Mayor que la Máxima 20.5 11-05-2017 00:00 20.7 -- 20.5 2020-10-27 13:22:00
2 2017-08-23 00:00:00 Temperatura 15.4 del 22-08-2017 15:00, Mayor que la Máxima 14.8 23-08-2017 00:00 15.4 -- 14.8 2020-10-27 14:58:00
2 2017-10-01 00:00:00 Temperatura 13.8 del 30-09-2017 13:00, Mayor que la Máxima 12.4 01-10-2017 00:00 13.8 -- 12.4 2020-10-27 15:26:00
2 2017-11-02 00:00:00 Temperatura 21.4 del 01-11-2017 15:00, Mayor que la Máxima 20.1 02-11-2017 00:00 21.4 -- 20.1 2020-10-27 16:18:00
2 2018-09-28 00:00:00 Temperatura 12.5 del 27-09-2018 13:00, Mayor que la Máxima 12.4 28-09-2018 00:00 12.5 -- 12.4 2020-10-27 15:29:00
2 2018-10-01 00:00:00 Temperatura 10.2 del 30-09-2018 13:00, Mayor que la Máxima 9.9 01-10-2018 00:00 10.2 -- 9.9 2020-10-27 15:29:00
2 2018-10-09 00:00:00 Temperatura 12.8 del 08-10-2018 13:00, Mayor que la Máxima 12.7 09-10-2018 00:00 12.8 -- 12.7 2020-10-27 15:54:00
2 2019-12-24 00:00:00 Temperatura 34.0 del 23-12-2019 16:00, Mayor que la Máxima 33.5 24-12-2019 00:00 34.0 -- 33.5 2020-10-27 16:46:00
2 2000-07-14 12:00:00 Temperatura 2.6 del 14-07-2000 12:00, Menor que la Mínima 3.0 14-07-2000 12:00 2.6 -- 3.0 2023-12-28 23:39:00
2 2000-07-16 12:00:00 Temperatura 2.2 del 16-07-2000 12:00, Menor que la Mínima 20.0 16-07-2000 12:00 2.2 -- 20.0 2023-12-28 23:39:00
2 2000-08-24 12:00:00 Temperatura 4.8 del 24-08-2000 12:00, Menor que la Mínima 6.0 24-08-2000 12:00 4.8 -- 6.0 2023-12-28 23:39:00
2 2000-10-28 12:00:00 Temperatura 11.8 del 28-10-2000 12:00, Menor que la Mínima 12.0 28-10-2000 12:00 11.8 -- 12.0 2023-12-28 23:39:00
2 2001-04-18 12:00:00 Temperatura 8.0 del 18-04-2001 12:00, Menor que la Mínima 9.6 18-04-2001 12:00 8.0 -- 9.6 2023-12-28 23:40:00
2 2001-05-14 12:00:00 Temperatura 4.8 del 14-05-2001 12:00, Menor que la Mínima 5.0 14-05-2001 12:00 4.8 -- 5.0 2023-12-28 23:40:00
2 2001-05-22 12:00:00 Temperatura 4.0 del 22-05-2001 12:00, Menor que la Mínima 5.0 22-05-2001 12:00 4.0 -- 5.0 2023-12-28 23:40:00
2 2002-02-24 12:00:00 Temperatura 13.8 del 24-02-2002 12:00, Menor que la Mínima 14.0 24-02-2002 12:00 13.8 -- 14.0 2023-12-28 23:40:00
2 2003-01-30 12:00:00 Temperatura 16.6 del 30-01-2003 12:00, Menor que la Mínima 20.2 30-01-2003 12:00 16.6 -- 20.2 2023-12-28 23:41:00
2 2003-04-18 12:00:00 Temperatura 11.4 del 18-04-2003 12:00, Menor que la Mínima 11.8 18-04-2003 12:00 11.4 -- 11.8 2023-12-28 23:41:00
2 2003-09-17 12:00:00 Temperatura 8.4 del 17-09-2003 12:00, Menor que la Mínima 8.6 17-09-2003 12:00 8.4 -- 8.6 2023-12-28 23:41:00
2 2004-03-26 12:00:00 Temperatura 11.2 del 26-03-2004 12:00, Menor que la Mínima 11.6 26-03-2004 12:00 11.2 -- 11.6 2023-12-28 23:41:00
2 2004-07-22 12:00:00 Temperatura 6.4 del 22-07-2004 12:00, Menor que la Mínima 9.2 22-07-2004 12:00 6.4 -- 9.2 2023-12-28 23:42:00
2 2004-08-17 12:00:00 Temperatura 2.4 del 17-08-2004 12:00, Menor que la Mínima 10.0 17-08-2004 12:00 2.4 -- 10.0 2023-12-28 23:42:00
2 2009-02-04 12:00:00 Temperatura 11.1 del 04-02-2009 11:00, Menor que la Mínima 11.2 04-02-2009 12:00 11.1 -- 11.2 2023-12-31 00:51:00
2 2009-02-10 12:00:00 Temperatura 10.8 del 10-02-2009 11:00, Menor que la Mínima 12.0 10-02-2009 12:00 10.8 -- 12.0 2023-12-31 00:51:00
2 2009-02-11 12:00:00 Temperatura 10.1 del 11-02-2009 11:00, Menor que la Mínima 11.8 11-02-2009 12:00 10.1 -- 11.8 2023-12-31 00:51:00
2 2009-02-12 12:00:00 Temperatura 10.6 del 12-02-2009 11:00, Menor que la Mínima 12.0 12-02-2009 12:00 10.6 -- 12.0 2023-12-31 00:51:00
2 2009-02-13 12:00:00 Temperatura 9.7 del 13-02-2009 10:00, Menor que la Mínima 11.0 13-02-2009 12:00 9.7 -- 11.0 2023-12-31 00:51:00
2 2009-02-14 12:00:00 Temperatura 11.6 del 14-02-2009 11:00, Menor que la Mínima 12.8 14-02-2009 12:00 11.6 -- 12.8 2023-12-31 00:51:00
2 2009-02-15 12:00:00 Temperatura 12.3 del 15-02-2009 06:00, Menor que la Mínima 14.0 15-02-2009 12:00 12.3 -- 14.0 2023-12-31 00:51:00
2 2009-02-16 12:00:00 Temperatura 12.0 del 16-02-2009 09:00, Menor que la Mínima 14.0 16-02-2009 12:00 12.0 -- 14.0 2023-12-31 00:51:00
2 2009-02-17 12:00:00 Temperatura 11.6 del 17-02-2009 11:00, Menor que la Mínima 12.8 17-02-2009 12:00 11.6 -- 12.8 2023-12-31 00:51:00
2 2009-02-18 12:00:00 Temperatura 14.0 del 18-02-2009 07:00, Menor que la Mínima 14.6 18-02-2009 12:00 14.0 -- 14.6 2023-12-31 00:51:00
2 2009-02-19 12:00:00 Temperatura 11.9 del 19-02-2009 08:00, Menor que la Mínima 13.0 19-02-2009 12:00 11.9 -- 13.0 2023-12-31 00:51:00
2 2010-02-25 12:00:00 Temperatura 13.3 del 25-02-2010 02:00, Menor que la Mínima 14.7 25-02-2010 12:00 13.3 -- 14.7 2020-10-27 11:40:00
2 2010-03-07 12:00:00 Temperatura 15.4 del 07-03-2010 02:00, Menor que la Mínima 15.6 07-03-2010 12:00 15.4 -- 15.6 2020-10-27 12:08:00
2 2010-03-11 12:00:00 Temperatura 11.8 del 11-03-2010 03:00, Menor que la Mínima 12.9 11-03-2010 12:00 11.8 -- 12.9 2020-10-27 12:08:00
2 2010-03-16 12:00:00 Temperatura 13.5 del 16-03-2010 02:00, Menor que la Mínima 13.8 16-03-2010 12:00 13.5 -- 13.8 2020-10-27 12:08:00
2 2010-03-31 12:00:00 Temperatura 10.6 del 31-03-2010 03:00, Menor que la Mínima 12.5 31-03-2010 12:00 10.6 -- 12.5 2020-10-27 12:10:00
2 2010-04-01 12:00:00 Temperatura 11.7 del 01-04-2010 03:00, Menor que la Mínima 12.4 01-04-2010 12:00 11.7 -- 12.4 2020-10-27 12:36:00
2 2010-04-09 12:00:00 Temperatura 9.5 del 09-04-2010 02:00, Menor que la Mínima 11.1 09-04-2010 12:00 9.5 -- 11.1 2020-10-27 12:36:00
2 2010-04-10 12:00:00 Temperatura 9.6 del 10-04-2010 02:00, Menor que la Mínima 11.3 10-04-2010 12:00 9.6 -- 11.3 2020-10-27 12:36:00
2 2010-06-09 12:00:00 Temperatura 8.7 del 09-06-2010 01:00, Menor que la Mínima 9.3 09-06-2010 12:00 8.7 -- 9.3 2020-10-27 13:29:00
2 2010-07-11 12:00:00 Temperatura 8.3 del 11-07-2010 01:00, Menor que la Mínima 8.6 11-07-2010 12:00 8.3 -- 8.6 2020-10-27 13:58:00
2 2010-08-10 12:00:00 Temperatura 5.5 del 10-08-2010 03:00, Menor que la Mínima 6.9 10-08-2010 12:00 5.5 -- 6.9 2020-10-27 14:29:00
2 2010-08-28 12:00:00 Temperatura 8.9 del 28-08-2010 02:00, Menor que la Mínima 10.1 28-08-2010 12:00 8.9 -- 10.1 2020-10-27 14:31:00
2 2010-09-24 12:00:00 Temperatura 7.9 del 24-09-2010 04:00, Menor que la Mínima 8.9 24-09-2010 12:00 7.9 -- 8.9 2020-10-27 15:05:00
2 2010-10-05 12:00:00 Temperatura 10.0 del 05-10-2010 03:00, Menor que la Mínima 10.1 05-10-2010 12:00 10.0 -- 10.1 2020-10-27 15:30:00
2 2010-10-10 12:00:00 Temperatura 9.7 del 10-10-2010 02:00, Menor que la Mínima 10.2 10-10-2010 12:00 9.7 -- 10.2 2020-10-27 15:31:00
2 2010-11-08 12:00:00 Temperatura 7.8 del 08-11-2010 02:00, Menor que la Mínima 7.9 08-11-2010 12:00 7.8 -- 7.9 2020-10-27 15:58:00
2 2010-11-11 12:00:00 Temperatura 10.8 del 11-11-2010 03:00, Menor que la Mínima 11.2 11-11-2010 12:00 10.8 -- 11.2 2020-10-27 15:58:00
2 2010-11-13 12:00:00 Temperatura 10.8 del 13-11-2010 02:00, Menor que la Mínima 10.9 13-11-2010 12:00 10.8 -- 10.9 2020-10-27 15:58:00
2 2010-11-19 12:00:00 Temperatura 12.0 del 19-11-2010 01:00, Menor que la Mínima 12.2 19-11-2010 12:00 12.0 -- 12.2 2020-10-27 15:59:00
2 2010-12-06 12:00:00 Temperatura 12.4 del 06-12-2010 03:00, Menor que la Mínima 13.0 06-12-2010 12:00 12.4 -- 13.0 2020-10-27 16:21:00
2 2010-12-07 12:00:00 Temperatura 10.7 del 07-12-2010 02:00, Menor que la Mínima 12.0 07-12-2010 12:00 10.7 -- 12.0 2020-10-27 16:21:00
2 2010-12-31 12:00:00 Temperatura 14.3 del 31-12-2010 01:00, Menor que la Mínima 15.1 31-12-2010 12:00 14.3 -- 15.1 2020-10-27 16:24:00
2 2011-02-19 12:00:00 Temperatura 15.4 del 19-02-2011 03:00, Menor que la Mínima 16.3 19-02-2011 12:00 15.4 -- 16.3 2020-10-27 11:43:00
2 2011-02-28 12:00:00 Temperatura 14.0 del 28-02-2011 03:00, Menor que la Mínima 14.3 28-02-2011 12:00 14.0 -- 14.3 2020-10-27 11:44:00
2 2011-03-09 12:00:00 Temperatura 14.1 del 09-03-2011 03:00, Menor que la Mínima 15.1 09-03-2011 12:00 14.1 -- 15.1 2020-10-27 12:11:00
2 2011-03-11 12:00:00 Temperatura 16.5 del 11-03-2011 01:00, Menor que la Mínima 16.8 11-03-2011 12:00 16.5 -- 16.8 2020-10-27 12:11:00
2 2011-03-21 12:00:00 Temperatura 12.2 del 21-03-2011 03:00, Menor que la Mínima 12.3 21-03-2011 12:00 12.2 -- 12.3 2020-10-27 12:12:00
2 2011-04-06 12:00:00 Temperatura 12.6 del 06-04-2011 01:00, Menor que la Mínima 14.0 06-04-2011 12:00 12.6 -- 14.0 2020-10-27 12:39:00
2 2011-04-09 12:00:00 Temperatura 11.3 del 09-04-2011 02:00, Menor que la Mínima 13.0 09-04-2011 12:00 11.3 -- 13.0 2020-10-27 12:40:00
2 2011-04-12 12:00:00 Temperatura 12.1 del 12-04-2011 02:00, Menor que la Mínima 13.1 12-04-2011 12:00 12.1 -- 13.1 2020-10-27 12:40:00
2 2011-04-20 12:00:00 Temperatura 8.9 del 20-04-2011 01:00, Menor que la Mínima 10.9 20-04-2011 12:00 8.9 -- 10.9 2020-10-27 12:41:00
2 2011-05-01 12:00:00 Temperatura 7.4 del 01-05-2011 01:00, Menor que la Mínima 7.5 01-05-2011 12:00 7.4 -- 7.5 2020-10-27 12:42:00
2 2011-05-06 12:00:00 Temperatura 6.5 del 06-05-2011 02:00, Menor que la Mínima 7.4 06-05-2011 12:00 6.5 -- 7.4 2020-10-27 13:06:00
2 2011-05-10 12:00:00 Temperatura 7.9 del 10-05-2011 01:00, Menor que la Mínima 8.1 10-05-2011 12:00 7.9 -- 8.1 2020-10-27 13:06:00
2 2011-05-18 12:00:00 Temperatura 8.8 del 18-05-2011 01:00, Menor que la Mínima 8.9 18-05-2011 12:00 8.8 -- 8.9 2020-10-27 13:07:00
2 2011-05-30 12:00:00 Temperatura 2.6 del 30-05-2011 02:00, Menor que la Mínima 4.1 30-05-2011 12:00 2.6 -- 4.1 2020-10-27 13:08:00
2 2011-06-01 12:00:00 Temperatura 2.3 del 01-06-2011 02:00, Menor que la Mínima 4.8 01-06-2011 12:00 2.3 -- 4.8 2020-10-27 13:32:00
2 2011-07-16 12:00:00 Temperatura 5.0 del 16-07-2011 01:00, Menor que la Mínima 6.1 16-07-2011 12:00 5.0 -- 6.1 2020-10-27 14:01:00
2 2011-07-25 12:00:00 Temperatura 7.8 del 25-07-2011 03:00, Menor que la Mínima 8.0 25-07-2011 12:00 7.8 -- 8.0 2020-10-27 14:02:00
2 2011-08-22 12:00:00 Temperatura 4.7 del 22-08-2011 03:00, Menor que la Mínima 5.9 22-08-2011 12:00 4.7 -- 5.9 2020-10-27 14:35:00
2 2011-08-25 12:00:00 Temperatura 5.7 del 25-08-2011 03:00, Menor que la Mínima 6.1 25-08-2011 12:00 5.7 -- 6.1 2020-10-27 14:35:00
2 2011-09-10 12:00:00 Temperatura 8.9 del 10-09-2011 03:00, Menor que la Mínima 9.6 10-09-2011 12:00 8.9 -- 9.6 2020-10-27 15:06:00
2 2011-09-14 12:00:00 Temperatura 8.8 del 14-09-2011 01:00, Menor que la Mínima 10.6 14-09-2011 12:00 8.8 -- 10.6 2020-10-27 15:07:00
2 2011-09-20 12:00:00 Temperatura 9.9 del 20-09-2011 02:00, Menor que la Mínima 10.0 20-09-2011 12:00 9.9 -- 10.0 2020-10-27 15:07:00
2 2011-09-21 12:00:00 Temperatura 9.6 del 21-09-2011 01:00, Menor que la Mínima 10.0 21-09-2011 12:00 9.6 -- 10.0 2020-10-27 15:07:00
2 2011-11-16 12:00:00 Temperatura 12.7 del 16-11-2011 03:00, Menor que la Mínima 13.4 16-11-2011 12:00 12.7 -- 13.4 2020-10-27 16:02:00
2 2012-01-21 12:00:00 Temperatura 16.5 del 21-01-2012 02:00, Menor que la Mínima 16.6 21-01-2012 12:00 16.5 -- 16.6 2020-10-27 11:18:00
2 2012-02-24 12:00:00 Temperatura 14.5 del 24-02-2012 03:00, Menor que la Mínima 14.8 24-02-2012 12:00 14.5 -- 14.8 2020-10-27 11:46:00
2 2012-03-24 12:00:00 Temperatura 12.3 del 24-03-2012 03:00, Menor que la Mínima 12.4 24-03-2012 12:00 12.3 -- 12.4 2020-10-27 12:16:00
2 2012-04-03 12:00:00 Temperatura 12.7 del 03-04-2012 02:00, Menor que la Mínima 13.0 03-04-2012 12:00 12.7 -- 13.0 2020-10-27 12:42:00
2 2012-04-13 12:00:00 Temperatura 13.7 del 13-04-2012 01:00, Menor que la Mínima 13.8 13-04-2012 12:00 13.7 -- 13.8 2020-10-27 12:43:00
2 2012-04-22 12:00:00 Temperatura 7.6 del 22-04-2012 03:00, Menor que la Mínima 9.0 22-04-2012 12:00 7.6 -- 9.0 2020-10-27 12:44:00
2 2012-05-13 12:00:00 Temperatura 10.0 del 13-05-2012 01:00, Menor que la Mínima 11.6 13-05-2012 12:00 10.0 -- 11.6 2020-10-27 13:10:00
2 2012-05-17 12:00:00 Temperatura 8.5 del 17-05-2012 02:00, Menor que la Mínima 9.7 17-05-2012 12:00 8.5 -- 9.7 2020-10-27 13:10:00
2 2012-05-25 12:00:00 Temperatura 11.4 del 25-05-2012 01:00, Menor que la Mínima 11.5 25-05-2012 12:00 11.4 -- 11.5 2020-10-27 13:11:00
2 2012-06-09 12:00:00 Temperatura 6.8 del 09-06-2012 01:00, Menor que la Mínima 8.9 09-06-2012 12:00 6.8 -- 8.9 2020-10-27 13:36:00
2 2012-07-31 12:00:00 Temperatura 8.0 del 31-07-2012 02:00, Menor que la Mínima 8.5 31-07-2012 12:00 8.0 -- 8.5 2020-10-27 14:07:00
2 2012-08-02 12:00:00 Temperatura 6.1 del 02-08-2012 03:00, Menor que la Mínima 6.8 02-08-2012 12:00 6.1 -- 6.8 2020-10-27 14:37:00
2 2012-08-14 12:00:00 Temperatura 5.3 del 14-08-2012 03:00, Menor que la Mínima 5.9 14-08-2012 12:00 5.3 -- 5.9 2020-10-27 14:38:00
2 2012-08-15 12:00:00 Temperatura 5.8 del 15-08-2012 03:00, Menor que la Mínima 6.3 15-08-2012 12:00 5.8 -- 6.3 2020-10-27 14:38:00
2 2012-11-07 12:00:00 Temperatura 12.9 del 07-11-2012 02:00, Menor que la Mínima 13.5 07-11-2012 12:00 12.9 -- 13.5 2020-10-27 16:04:00
2 2012-11-20 12:00:00 Temperatura 12.3 del 20-11-2012 03:00, Menor que la Mínima 12.4 20-11-2012 12:00 12.3 -- 12.4 2020-10-27 16:05:00
2 2013-01-13 12:00:00 Temperatura 16.8 del 13-01-2013 01:00, Menor que la Mínima 17.2 13-01-2013 12:00 16.8 -- 17.2 2020-10-27 11:20:00
2 2013-01-22 12:00:00 Temperatura 15.6 del 22-01-2013 02:00, Menor que la Mínima 17.0 22-01-2013 12:00 15.6 -- 17.0 2020-10-27 11:21:00
2 2013-03-28 12:00:00 Temperatura 11.6 del 28-03-2013 03:00, Menor que la Mínima 12.4 28-03-2013 12:00 11.6 -- 12.4 2020-10-27 12:19:00
2 2013-03-29 12:00:00 Temperatura 14.9 del 29-03-2013 01:00, Menor que la Mínima 15.0 29-03-2013 12:00 14.9 -- 15.0 2020-10-27 12:19:00
2 2013-03-30 12:00:00 Temperatura 9.4 del 30-03-2013 03:00, Menor que la Mínima 10.3 30-03-2013 12:00 9.4 -- 10.3 2020-10-27 12:20:00
2 2013-04-09 12:00:00 Temperatura 11.8 del 09-04-2013 01:00, Menor que la Mínima 12.6 09-04-2013 12:00 11.8 -- 12.6 2020-10-27 12:46:00
2 2013-04-16 12:00:00 Temperatura 7.4 del 16-04-2013 03:00, Menor que la Mínima 8.8 16-04-2013 12:00 7.4 -- 8.8 2020-10-27 12:47:00
2 2013-04-26 12:00:00 Temperatura 9.2 del 26-04-2013 01:00, Menor que la Mínima 10.9 26-04-2013 12:00 9.2 -- 10.9 2020-10-27 12:48:00
2 2013-04-30 12:00:00 Temperatura 7.8 del 30-04-2013 01:00, Menor que la Mínima 9.0 30-04-2013 12:00 7.8 -- 9.0 2020-10-27 12:48:00
2 2013-05-17 12:00:00 Temperatura 4.9 del 17-05-2013 02:00, Menor que la Mínima 5.0 17-05-2013 12:00 4.9 -- 5.0 2020-10-27 13:13:00
2 2013-05-18 12:00:00 Temperatura 9.9 del 18-05-2013 02:00, Menor que la Mínima 10.1 18-05-2013 12:00 9.9 -- 10.1 2020-10-27 13:14:00
2 2013-05-22 12:00:00 Temperatura 7.2 del 22-05-2013 02:00, Menor que la Mínima 7.6 22-05-2013 12:00 7.2 -- 7.6 2020-10-27 13:14:00
2 2013-05-27 12:00:00 Temperatura 9.5 del 27-05-2013 02:00, Menor que la Mínima 9.6 27-05-2013 12:00 9.5 -- 9.6 2020-10-27 13:14:00
2 2013-05-28 12:00:00 Temperatura 8.9 del 28-05-2013 01:00, Menor que la Mínima 9.5 28-05-2013 12:00 8.9 -- 9.5 2020-10-27 13:14:00
2 2013-06-24 12:00:00 Temperatura 6.6 del 24-06-2013 02:00, Menor que la Mínima 7.2 24-06-2013 12:00 6.6 -- 7.2 2020-10-27 13:41:00
2 2013-06-28 12:00:00 Temperatura 9.4 del 28-06-2013 01:00, Menor que la Mínima 9.5 28-06-2013 12:00 9.4 -- 9.5 2020-10-27 13:42:00
2 2013-07-18 12:00:00 Temperatura 6.3 del 18-07-2013 01:00, Menor que la Mínima 7.1 18-07-2013 12:00 6.3 -- 7.1 2020-10-27 14:08:00
2 2013-08-21 12:00:00 Temperatura 6.3 del 21-08-2013 01:00, Menor que la Mínima 7.8 21-08-2013 12:00 6.3 -- 7.8 2020-10-27 14:43:00
2 2013-08-29 12:00:00 Temperatura 10.8 del 29-08-2013 01:00, Menor que la Mínima 10.9 29-08-2013 12:00 10.8 -- 10.9 2020-10-27 14:44:00
2 2013-10-19 12:00:00 Temperatura 8.9 del 19-10-2013 03:00, Menor que la Mínima 9.8 19-10-2013 12:00 8.9 -- 9.8 2020-10-27 15:40:00
2 2013-10-21 12:00:00 Temperatura 9.4 del 21-10-2013 03:00, Menor que la Mínima 9.5 21-10-2013 12:00 9.4 -- 9.5 2020-10-27 15:40:00
2 2013-10-29 12:00:00 Temperatura 8.3 del 29-10-2013 02:00, Menor que la Mínima 10.3 29-10-2013 12:00 8.3 -- 10.3 2020-10-27 15:41:00
2 2013-11-17 12:00:00 Temperatura 10.8 del 17-11-2013 03:00, Menor que la Mínima 12.4 17-11-2013 12:00 10.8 -- 12.4 2020-10-27 16:07:00
2 2013-11-24 12:00:00 Temperatura 10.8 del 24-11-2013 03:00, Menor que la Mínima 11.4 24-11-2013 12:00 10.8 -- 11.4 2020-10-27 16:08:00
2 2013-12-14 12:00:00 Temperatura 12.8 del 14-12-2013 03:00, Menor que la Mínima 13.4 14-12-2013 12:00 12.8 -- 13.4 2020-10-27 16:31:00
2 2014-03-24 12:00:00 Temperatura 12.4 del 24-03-2014 02:00, Menor que la Mínima 13.3 24-03-2014 12:00 12.4 -- 13.3 2020-10-27 12:22:00
2 2014-03-26 12:00:00 Temperatura 12.5 del 26-03-2014 01:00, Menor que la Mínima 13.1 26-03-2014 12:00 12.5 -- 13.1 2020-10-27 12:22:00
2 2014-07-14 12:00:00 Temperatura 5.1 del 14-07-2014 11:00, Menor que la Mínima 9.4 14-07-2014 12:00 5.1 -- 9.4 2020-10-27 14:10:00
2 2014-09-24 12:00:00 Temperatura 6.7 del 24-09-2014 03:00, Menor que la Mínima 6.9 24-09-2014 12:00 6.7 -- 6.9 2020-10-27 15:17:00
2 2014-10-07 12:00:00 Temperatura 10.4 del 07-10-2014 02:00, Menor que la Mínima 11.1 07-10-2014 12:00 10.4 -- 11.1 2020-10-27 15:42:00
2 2014-10-22 12:00:00 Temperatura 12.9 del 22-10-2014 02:00, Menor que la Mínima 13.2 22-10-2014 12:00 12.9 -- 13.2 2020-10-27 15:43:00
2 2014-11-12 12:00:00 Temperatura 7.6 del 12-11-2014 10:00, Menor que la Mínima 8.3 12-11-2014 12:00 7.6 -- 8.3 2020-10-27 16:10:00
2 2014-11-13 12:00:00 Temperatura 7.2 del 13-11-2014 08:00, Menor que la Mínima 12.9 13-11-2014 12:00 7.2 -- 12.9 2020-10-27 16:10:00
2 2014-11-18 12:00:00 Temperatura 12.8 del 18-11-2014 03:00, Menor que la Mínima 13.3 18-11-2014 12:00 12.8 -- 13.3 2020-10-27 16:11:00
2 2014-12-02 12:00:00 Temperatura 6.9 del 02-12-2014 09:00, Menor que la Mínima 7.5 02-12-2014 12:00 6.9 -- 7.5 2020-10-27 16:33:00
2 2014-12-05 12:00:00 Temperatura 11.9 del 05-12-2014 02:00, Menor que la Mínima 13.6 05-12-2014 12:00 11.9 -- 13.6 2020-10-27 16:33:00
2 2014-12-09 12:00:00 Temperatura 13.6 del 09-12-2014 02:00, Menor que la Mínima 14.5 09-12-2014 12:00 13.6 -- 14.5 2020-10-27 16:34:00
2 2014-12-10 12:00:00 Temperatura 13.3 del 10-12-2014 02:00, Menor que la Mínima 13.4 10-12-2014 12:00 13.3 -- 13.4 2020-10-27 16:34:00
2 2015-01-18 12:00:00 Temperatura 15.4 del 18-01-2015 02:00, Menor que la Mínima 15.5 18-01-2015 12:00 15.4 -- 15.5 2020-10-27 11:27:00
2 2015-02-26 12:00:00 Temperatura 14.1 del 26-02-2015 02:00, Menor que la Mínima 15.4 26-02-2015 12:00 14.1 -- 15.4 2020-10-27 11:57:00
2 2015-03-19 12:00:00 Temperatura 12.8 del 19-03-2015 03:00, Menor que la Mínima 12.9 19-03-2015 12:00 12.8 -- 12.9 2020-10-27 12:24:00
2 2015-04-06 12:00:00 Temperatura 12.8 del 06-04-2015 02:00, Menor que la Mínima 13.1 06-04-2015 12:00 12.8 -- 13.1 2020-10-27 12:49:00
2 2015-04-13 12:00:00 Temperatura 13.6 del 13-04-2015 01:00, Menor que la Mínima 14.6 13-04-2015 12:00 13.6 -- 14.6 2020-10-27 12:50:00
2 2015-04-14 12:00:00 Temperatura 13.9 del 14-04-2015 01:00, Menor que la Mínima 14.2 14-04-2015 12:00 13.9 -- 14.2 2020-10-27 12:50:00
2 2015-04-19 12:00:00 Temperatura 9.4 del 19-04-2015 02:00, Menor que la Mínima 10.6 19-04-2015 12:00 9.4 -- 10.6 2020-10-27 12:50:00
2 2015-06-18 12:00:00 Temperatura -1.6 del 18-06-2015 09:00, Menor que la Mínima -1.4 18-06-2015 12:00 -1.6 -- -1.4 2020-10-27 13:44:00
2 2015-06-19 12:00:00 Temperatura -0.9 del 19-06-2015 08:00, Menor que la Mínima 2.1 19-06-2015 12:00 -0.9 -- 2.1 2020-10-27 13:44:00
2 2015-06-23 12:00:00 Temperatura 3.0 del 23-06-2015 02:00, Menor que la Mínima 3.5 23-06-2015 12:00 3.0 -- 3.5 2020-10-27 13:44:00
2 2015-07-13 12:00:00 Temperatura 7.6 del 13-07-2015 09:00, Menor que la Mínima 7.7 13-07-2015 12:00 7.6 -- 7.7 2020-10-27 14:13:00
2 2015-07-15 12:00:00 Temperatura 2.1 del 15-07-2015 06:00, Menor que la Mínima 3.4 15-07-2015 12:00 2.1 -- 3.4 2020-10-27 14:13:00
2 2015-08-06 12:00:00 Temperatura 10.6 del 06-08-2015 03:00, Menor que la Mínima 10.7 06-08-2015 12:00 10.6 -- 10.7 2020-10-27 14:49:00
2 2015-08-07 12:00:00 Temperatura 7.3 del 07-08-2015 03:00, Menor que la Mínima 8.4 07-08-2015 12:00 7.3 -- 8.4 2020-10-27 14:50:00
2 2015-08-25 12:00:00 Temperatura 9.6 del 25-08-2015 02:00, Menor que la Mínima 10.5 25-08-2015 12:00 9.6 -- 10.5 2020-10-27 14:51:00
2 2015-12-06 12:00:00 Temperatura 13.6 del 06-12-2015 02:00, Menor que la Mínima 14.9 06-12-2015 12:00 13.6 -- 14.9 2020-10-27 16:36:00
2 2015-12-13 12:00:00 Temperatura 11.5 del 13-12-2015 03:00, Menor que la Mínima 12.8 13-12-2015 12:00 11.5 -- 12.8 2020-10-27 16:37:00
2 2016-01-14 12:00:00 Temperatura 14.7 del 14-01-2016 03:00, Menor que la Mínima 16.6 14-01-2016 12:00 14.7 -- 16.6 2020-10-27 11:30:00
2 2016-02-03 12:00:00 Temperatura 17.4 del 03-02-2016 01:00, Menor que la Mínima 18.3 03-02-2016 12:00 17.4 -- 18.3 2020-10-27 11:58:00
2 2016-02-05 12:00:00 Temperatura 15.5 del 05-02-2016 01:00, Menor que la Mínima 16.7 05-02-2016 12:00 15.5 -- 16.7 2020-10-27 11:58:00
2 2016-03-05 12:00:00 Temperatura 15.7 del 05-03-2016 02:00, Menor que la Mínima 16.2 05-03-2016 12:00 15.7 -- 16.2 2020-10-27 12:26:00
2 2016-03-06 12:00:00 Temperatura 15.3 del 06-03-2016 02:00, Menor que la Mínima 16.0 06-03-2016 12:00 15.3 -- 16.0 2020-10-27 12:26:00
2 2016-03-07 12:00:00 Temperatura 14.0 del 07-03-2016 02:00, Menor que la Mínima 15.0 07-03-2016 12:00 14.0 -- 15.0 2020-10-27 12:26:00
2 2016-03-11 12:00:00 Temperatura 13.8 del 11-03-2016 03:00, Menor que la Mínima 14.6 11-03-2016 12:00 13.8 -- 14.6 2020-10-27 12:27:00
2 2016-03-15 12:00:00 Temperatura 14.2 del 15-03-2016 02:00, Menor que la Mínima 14.4 15-03-2016 12:00 14.2 -- 14.4 2020-10-27 12:27:00
2 2016-03-17 12:00:00 Temperatura 14.2 del 17-03-2016 01:00, Menor que la Mínima 15.2 17-03-2016 12:00 14.2 -- 15.2 2020-10-27 12:27:00
2 2016-03-20 12:00:00 Temperatura 12.6 del 20-03-2016 03:00, Menor que la Mínima 13.8 20-03-2016 12:00 12.6 -- 13.8 2020-10-27 12:28:00
2 2016-03-21 12:00:00 Temperatura 12.3 del 21-03-2016 02:00, Menor que la Mínima 13.6 21-03-2016 12:00 12.3 -- 13.6 2020-10-27 12:28:00
2 2016-03-23 12:00:00 Temperatura 13.7 del 23-03-2016 02:00, Menor que la Mínima 14.1 23-03-2016 12:00 13.7 -- 14.1 2020-10-27 12:28:00
2 2016-03-25 12:00:00 Temperatura 14.7 del 25-03-2016 02:00, Menor que la Mínima 15.1 25-03-2016 12:00 14.7 -- 15.1 2020-10-27 12:28:00
2 2016-03-26 12:00:00 Temperatura 14.2 del 26-03-2016 01:00, Menor que la Mínima 14.7 26-03-2016 12:00 14.2 -- 14.7 2020-10-27 12:28:00
2 2016-03-28 12:00:00 Temperatura 13.2 del 28-03-2016 02:00, Menor que la Mínima 14.1 28-03-2016 12:00 13.2 -- 14.1 2020-10-27 12:29:00
2 2016-03-30 12:00:00 Temperatura 13.5 del 30-03-2016 01:00, Menor que la Mínima 15.5 30-03-2016 12:00 13.5 -- 15.5 2020-10-27 12:29:00
2 2016-04-03 12:00:00 Temperatura 13.0 del 03-04-2016 02:00, Menor que la Mínima 13.8 03-04-2016 12:00 13.0 -- 13.8 2020-10-27 12:52:00
2 2016-05-14 12:00:00 Temperatura 11.2 del 14-05-2016 02:00, Menor que la Mínima 11.4 14-05-2016 12:00 11.2 -- 11.4 2020-10-27 13:19:00
2 2016-05-27 12:00:00 Temperatura 10.9 del 27-05-2016 03:00, Menor que la Mínima 11.5 27-05-2016 12:00 10.9 -- 11.5 2020-10-27 13:20:00
2 2016-06-18 12:00:00 Temperatura 5.7 del 18-06-2016 03:00, Menor que la Mínima 5.8 18-06-2016 12:00 5.7 -- 5.8 2020-10-27 13:47:00
2 2016-06-19 12:00:00 Temperatura 6.3 del 19-06-2016 02:00, Menor que la Mínima 6.6 19-06-2016 12:00 6.3 -- 6.6 2020-10-27 13:47:00
2 2016-06-24 12:00:00 Temperatura 7.2 del 24-06-2016 01:00, Menor que la Mínima 8.1 24-06-2016 12:00 7.2 -- 8.1 2020-10-27 13:47:00
2 2016-07-24 12:00:00 Temperatura 10.3 del 24-07-2016 03:00, Menor que la Mínima 11.0 24-07-2016 12:00 10.3 -- 11.0 2020-10-27 14:17:00
2 2016-10-03 12:00:00 Temperatura 8.9 del 03-10-2016 03:00, Menor que la Mínima 9.4 03-10-2016 12:00 8.9 -- 9.4 2020-10-27 15:47:00
2 2016-10-15 12:00:00 Temperatura 10.1 del 15-10-2016 03:00, Menor que la Mínima 10.5 15-10-2016 12:00 10.1 -- 10.5 2020-10-27 15:48:00
2 2016-10-17 12:00:00 Temperatura 9.3 del 17-10-2016 03:00, Menor que la Mínima 9.7 17-10-2016 12:00 9.3 -- 9.7 2020-10-27 15:48:00
2 2016-10-22 12:00:00 Temperatura 9.2 del 22-10-2016 03:00, Menor que la Mínima 10.6 22-10-2016 12:00 9.2 -- 10.6 2020-10-27 15:49:00
2 2016-10-28 12:00:00 Temperatura 14.0 del 28-10-2016 10:00, Menor que la Mínima 14.1 28-10-2016 12:00 14.0 -- 14.1 2020-10-27 15:49:00
2 2016-11-02 12:00:00 Temperatura 8.3 del 02-11-2016 03:00, Menor que la Mínima 8.4 02-11-2016 12:00 8.3 -- 8.4 2020-10-27 16:15:00
2 2016-11-05 12:00:00 Temperatura 14.4 del 05-11-2016 03:00, Menor que la Mínima 14.5 05-11-2016 12:00 14.4 -- 14.5 2020-10-27 16:15:00
2 2016-11-20 12:00:00 Temperatura 11.7 del 20-11-2016 03:00, Menor que la Mínima 13.2 20-11-2016 12:00 11.7 -- 13.2 2020-10-27 16:16:00
2 2016-11-25 12:00:00 Temperatura 13.2 del 25-11-2016 02:00, Menor que la Mínima 14.7 25-11-2016 12:00 13.2 -- 14.7 2020-10-27 16:17:00
2 2017-03-17 12:00:00 Temperatura 12.1 del 17-03-2017 03:00, Menor que la Mínima 12.2 17-03-2017 12:00 12.1 -- 12.2 2020-10-27 12:30:00
2 2017-04-18 12:00:00 Temperatura 11.7 del 18-04-2017 02:00, Menor que la Mínima 13.6 18-04-2017 12:00 11.7 -- 13.6 2020-10-27 12:57:00
2 2017-05-01 12:00:00 Temperatura 9.8 del 01-05-2017 02:00, Menor que la Mínima 11.3 01-05-2017 12:00 9.8 -- 11.3 2020-10-27 12:58:00
2 2017-05-07 12:00:00 Temperatura 9.7 del 07-05-2017 02:00, Menor que la Mínima 11.0 07-05-2017 12:00 9.7 -- 11.0 2020-10-27 13:22:00
2 2017-05-16 12:00:00 Temperatura 11.5 del 16-05-2017 01:00, Menor que la Mínima 12.3 16-05-2017 12:00 11.5 -- 12.3 2020-10-27 13:23:00
2 2017-06-14 12:00:00 Temperatura 9.3 del 14-06-2017 01:00, Menor que la Mínima 10.1 14-06-2017 12:00 9.3 -- 10.1 2020-10-27 13:50:00
2 2017-06-16 12:00:00 Temperatura 8.0 del 16-06-2017 03:00, Menor que la Mínima 8.8 16-06-2017 12:00 8.0 -- 8.8 2020-10-27 13:50:00
2 2017-07-03 12:00:00 Temperatura 9.7 del 03-07-2017 01:00, Menor que la Mínima 10.8 03-07-2017 12:00 9.7 -- 10.8 2020-10-27 14:19:00
2 2017-07-12 12:00:00 Temperatura 7.9 del 12-07-2017 01:00, Menor que la Mínima 8.6 12-07-2017 12:00 7.9 -- 8.6 2020-10-27 14:20:00
2 2017-07-13 12:00:00 Temperatura 8.4 del 13-07-2017 02:00, Menor que la Mínima 9.1 13-07-2017 12:00 8.4 -- 9.1 2020-10-27 14:20:00
2 2017-08-27 12:00:00 Temperatura 7.7 del 27-08-2017 03:00, Menor que la Mínima 8.0 27-08-2017 12:00 7.7 -- 8.0 2020-10-27 14:58:00
2 2017-09-01 12:00:00 Temperatura 9.0 del 01-09-2017 01:00, Menor que la Mínima 9.9 01-09-2017 12:00 9.0 -- 9.9 2020-10-27 15:23:00
2 2017-09-24 12:00:00 Temperatura 10.2 del 24-09-2017 02:00, Menor que la Mínima 10.5 24-09-2017 12:00 10.2 -- 10.5 2020-10-27 15:25:00
2 2017-09-28 12:00:00 Temperatura 10.1 del 28-09-2017 02:00, Menor que la Mínima 11.4 28-09-2017 12:00 10.1 -- 11.4 2020-10-27 15:26:00
2 2017-10-04 12:00:00 Temperatura 0.0 del 04-10-2017 05:00, Menor que la Mínima 8.3 04-10-2017 12:00 0.0 -- 8.3 2020-10-27 15:50:00
2 2017-10-15 12:00:00 Temperatura 9.4 del 15-10-2017 02:00, Menor que la Mínima 10.0 15-10-2017 12:00 9.4 -- 10.0 2020-10-27 15:51:00
2 2017-10-29 12:00:00 Temperatura 6.4 del 29-10-2017 03:00, Menor que la Mínima 8.3 29-10-2017 12:00 6.4 -- 8.3 2020-10-27 15:53:00
2 2017-11-24 12:00:00 Temperatura 11.2 del 24-11-2017 02:00, Menor que la Mínima 12.9 24-11-2017 12:00 11.2 -- 12.9 2020-10-27 16:20:00
2 2017-12-02 12:00:00 Temperatura 0.0 del 02-12-2017 05:00, Menor que la Mínima 13.0 02-12-2017 12:00 0.0 -- 13.0 2020-10-27 16:41:00
2 2017-12-11 12:00:00 Temperatura 13.2 del 11-12-2017 02:00, Menor que la Mínima 14.6 11-12-2017 12:00 13.2 -- 14.6 2020-10-27 16:42:00
2 2018-01-20 12:00:00 Temperatura 14.7 del 20-01-2018 03:00, Menor que la Mínima 15.8 20-01-2018 12:00 14.7 -- 15.8 2020-10-27 11:37:00
2 2018-01-23 12:00:00 Temperatura 15.3 del 23-01-2018 02:00, Menor que la Mínima 17.0 23-01-2018 12:00 15.3 -- 17.0 2020-10-27 11:37:00
2 2018-01-25 12:00:00 Temperatura 14.8 del 25-01-2018 03:00, Menor que la Mínima 14.9 25-01-2018 12:00 14.8 -- 14.9 2020-10-27 11:37:00
2 2018-02-05 12:00:00 Temperatura 15.9 del 05-02-2018 03:00, Menor que la Mínima 16.4 05-02-2018 12:00 15.9 -- 16.4 2020-10-27 12:04:00
2 2018-03-02 12:00:00 Temperatura 13.6 del 02-03-2018 03:00, Menor que la Mínima 14.3 02-03-2018 12:00 13.6 -- 14.3 2020-10-27 12:07:00
2 2018-04-01 12:00:00 Temperatura 10.7 del 01-04-2018 02:00, Menor que la Mínima 11.1 01-04-2018 12:00 10.7 -- 11.1 2020-10-27 12:59:00
2 2018-04-02 12:00:00 Temperatura 11.2 del 02-04-2018 01:00, Menor que la Mínima 11.8 02-04-2018 12:00 11.2 -- 11.8 2020-10-27 12:59:00
2 2018-04-16 12:00:00 Temperatura 8.6 del 16-04-2018 03:00, Menor que la Mínima 10.4 16-04-2018 12:00 8.6 -- 10.4 2020-10-27 13:00:00
2 2018-04-30 12:00:00 Temperatura 7.2 del 30-04-2018 01:00, Menor que la Mínima 9.7 30-04-2018 12:00 7.2 -- 9.7 2020-10-27 13:02:00
2 2018-05-06 12:00:00 Temperatura 9.4 del 06-05-2018 01:00, Menor que la Mínima 11.8 06-05-2018 12:00 9.4 -- 11.8 2020-10-27 13:25:00
2 2018-05-26 12:00:00 Temperatura 7.4 del 26-05-2018 01:00, Menor que la Mínima 8.0 26-05-2018 12:00 7.4 -- 8.0 2020-10-27 13:27:00
2 2018-07-05 12:00:00 Temperatura 7.6 del 05-07-2018 03:00, Menor que la Mínima 8.0 05-07-2018 12:00 7.6 -- 8.0 2020-10-27 14:24:00
2 2018-07-15 12:00:00 Temperatura 10.4 del 15-07-2018 01:00, Menor que la Mínima 10.8 15-07-2018 12:00 10.4 -- 10.8 2020-10-27 14:25:00
2 2018-08-26 12:00:00 Temperatura 11.3 del 26-08-2018 01:00, Menor que la Mínima 12.3 26-08-2018 12:00 11.3 -- 12.3 2020-10-27 15:02:00
Errores del Nivel 415
Informe generado el 23-07-2024 17:56
Requerimiento: RE6001